Observation data for South Plains 3ENE on 07/04/2020      Previous  Date       Current Mesonet Observations  Soil Data  Daily Summary Page  Observations in Plain Language
KSP2 040500Z 16002KT 24/14 A3009 RMK A01 T02420141  RH  053%=      5-min Rain = 0
KSP2 040501Z 16002KT 24/14 A3009 RMK A01 T02410141  RH  054%=      5-min Rain = 0
KSP2 040502Z 16002KT 24/14 A3009 RMK A01 T02400142  RH  054%=      5-min Rain = 0
KSP2 040503Z 17003KT 24/14 A3009 RMK A01 T02390142  RH  055%=      5-min Rain = 0
KSP2 040504Z 17003KT 24/14 A3009 RMK A01 T02390143  RH  055%=      5-min Rain = 0
KSP2 040505Z 17003KT 24/14 A3009 RMK A01 T02380143  RH  055%=      5-min Rain = 0
KSP2 040506Z 16003KT 24/14 A3009 RMK A01 T02380143  RH  055%=      5-min Rain = 0
KSP2 040507Z 16003KT 24/14 A3009 RMK A01 T02370143  RH  055%=      5-min Rain = 0
KSP2 040508Z 16003KT 24/14 A3009 RMK A01 T02370143  RH  056%=      5-min Rain = 0
KSP2 040509Z 16003KT 24/14 A3009 RMK A01 T02360143  RH  056%=      5-min Rain = 0
KSP2 040510Z 16003KT 24/14 A3009 RMK A01 T02350143  RH  056%=      5-min Rain = 0
KSP2 040511Z 16003KT 23/14 A3009 RMK A01 T02340143  RH  056%=      5-min Rain = 0
KSP2 040512Z 16003KT 23/14 A3009 RMK A01 T02340143  RH  057%=      5-min Rain = 0
KSP2 040513Z 16003KT 23/14 A3009 RMK A01 T02330143  RH  057%=      5-min Rain = 0
KSP2 040514Z 16003KT 23/14 A3009 RMK A01 T02330143  RH  057%=      5-min Rain = 0
KSP2 040515Z 17003KT 23/14 A3009 RMK A01 T02320143  RH  057%=      5-min Rain = 0
KSP2 040516Z 17003KT 23/14 A3009 RMK A01 T02310142  RH  057%=      5-min Rain = 0
KSP2 040517Z 17003KT 23/14 A3009 RMK A01 T02310142  RH  057%=      5-min Rain = 0
KSP2 040518Z 17003KT 23/14 A3009 RMK A01 T02310143  RH  057%=      5-min Rain = 0
KSP2 040519Z 17003KT 23/14 A3009 RMK A01 T02310143  RH  058%=      5-min Rain = 0
KSP2 040520Z 17003KT 23/14 A3009 RMK A01 T02300142  RH  058%=      5-min Rain = 0
KSP2 040521Z 17003KT 23/14 A3009 RMK A01 T02300142  RH  058%=      5-min Rain = 0
KSP2 040522Z 17003KT 23/14 A3009 RMK A01 T02300142  RH  058%=      5-min Rain = 0
KSP2 040523Z 17003KT 23/14 A3009 RMK A01 T02290141  RH  058%=      5-min Rain = 0
KSP2 040524Z 17002KT 23/14 A3009 RMK A01 T02290141  RH  058%=      5-min Rain = 0
KSP2 040525Z 17002KT 23/14 A3009 RMK A01 T02290142  RH  058%=      5-min Rain = 0
KSP2 040526Z 18002KT 23/14 A3009 RMK A01 T02280142  RH  058%=      5-min Rain = 0
KSP2 040527Z 18002KT 23/14 A3009 RMK A01 T02280141  RH  058%=      5-min Rain = 0
KSP2 040528Z 18002KT 23/14 A3009 RMK A01 T02270141  RH  058%=      5-min Rain = 0
KSP2 040529Z 18002KT 23/14 A3009 RMK A01 T02270140  RH  058%=      5-min Rain = 0
KSP2 040530Z 18002KT 23/14 A3009 RMK A01 T02270140  RH  058%=      5-min Rain = 0
KSP2 040531Z 18002KT 23/14 A3009 RMK A01 T02260140  RH  058%=      5-min Rain = 0
KSP2 040532Z 17002KT 23/14 A3009 RMK A01 T02250139  RH  058%=      5-min Rain = 0
KSP2 040533Z 17002KT 23/14 A3009 RMK A01 T02250139  RH  058%=      5-min Rain = 0
KSP2 040534Z 17002KT 23/14 A3009 RMK A01 T02250139  RH  059%=      5-min Rain = 0
KSP2 040535Z 17002KT 22/14 A3009 RMK A01 T02240140  RH  059%=      5-min Rain = 0
KSP2 040536Z 18002KT 22/14 A3009 RMK A01 T02240140  RH  059%=      5-min Rain = 0
KSP2 040537Z 19002KT 22/14 A3009 RMK A01 T02230140  RH  059%=      5-min Rain = 0
KSP2 040538Z 19002KT 22/14 A3009 RMK A01 T02230140  RH  059%=      5-min Rain = 0
KSP2 040539Z 19002KT 22/14 A3009 RMK A01 T02230140  RH  059%=      5-min Rain = 0
KSP2 040540Z 20002KT 22/14 A3009 RMK A01 T02230140  RH  059%=      5-min Rain = 0
KSP2 040541Z 19002KT 22/14 A3009 RMK A01 T02230140  RH  059%=      5-min Rain = 0
KSP2 040542Z 18002KT 22/14 A3009 RMK A01 T02230140  RH  060%=      5-min Rain = 0
KSP2 040543Z 18002KT 22/14 A3009 RMK A01 T02220140  RH  060%=      5-min Rain = 0
KSP2 040544Z 19001KT 22/14 A3009 RMK A01 T02220140  RH  060%=      5-min Rain = 0
KSP2 040545Z 19002KT 22/14 A3009 RMK A01 T02220140  RH  060%=      5-min Rain = 0
KSP2 040546Z 19002KT 22/14 A3009 RMK A01 T02220140  RH  060%=      5-min Rain = 0
KSP2 040547Z 19001KT 22/14 A3009 RMK A01 T02220140  RH  060%=      5-min Rain = 0
KSP2 040548Z 20001KT 22/14 A3009 RMK A01 T02220140  RH  060%=      5-min Rain = 0
KSP2 040549Z 21001KT 22/14 A3009 RMK A01 T02230139  RH  059%=      5-min Rain = 0
KSP2 040550Z 22002KT 22/14 A3009 RMK A01 T02230139  RH  059%=      5-min Rain = 0
KSP2 040551Z 22002KT 22/14 A3009 RMK A01 T02230139  RH  059%=      5-min Rain = 0
KSP2 040552Z 23002KT 22/14 A3009 RMK A01 T02220138  RH  059%=      5-min Rain = 0
KSP2 040553Z 22002KT 22/14 A3009 RMK A01 T02220138  RH  059%=      5-min Rain = 0
KSP2 040554Z 23001KT 22/14 A3009 RMK A01 T02220139  RH  059%=      5-min Rain = 0
KSP2 040555Z 23001KT 22/14 A3009 RMK A01 T02220140  RH  060%=      5-min Rain = 0
KSP2 040556Z 23001KT 22/14 A3009 RMK A01 T02220141  RH  060%=      5-min Rain = 0
KSP2 040557Z 23000KT 22/14 A3009 RMK A01 T02210141  RH  060%=      5-min Rain = 0
KSP2 040558Z 00000KT 22/14 A3009 RMK A01 T02210141  RH  060%=      5-min Rain = 0
KSP2 040559Z 00000KT 22/14 A3009 RMK A01 T02210140  RH  060%=      5-min Rain = 0
KSP2 040600Z 00000KT 22/14 A3009 RMK A01 T02210140  RH  060%=      5-min Rain = 0
KSP2 040601Z 00000KT 22/14 A3009 RMK A01 T02210139  RH  060%=      5-min Rain = 0
KSP2 040602Z 00000KT 22/14 A3009 RMK A01 T02200139  RH  060%=      5-min Rain = 0
KSP2 040603Z 23000KT 22/14 A3009 RMK A01 T02200138  RH  060%=      5-min Rain = 0
KSP2 040604Z 23000KT 22/14 A3009 RMK A01 T02200139  RH  060%=      5-min Rain = 0
KSP2 040605Z 23000KT 22/14 A3009 RMK A01 T02190139  RH  060%=      5-min Rain = 0
KSP2 040606Z 23000KT 22/14 A3009 RMK A01 T02190138  RH  060%=      5-min Rain = 0
KSP2 040607Z 00000KT 22/14 A3009 RMK A01 T02180137  RH  060%=      5-min Rain = 0
KSP2 040608Z 00000KT 22/14 A3009 RMK A01 T02180137  RH  060%=      5-min Rain = 0
KSP2 040609Z 00000KT 22/14 A3008 RMK A01 T02180137  RH  060%=      5-min Rain = 0
KSP2 040610Z 00000KT 22/14 A3008 RMK A01 T02180137  RH  060%=      5-min Rain = 0
KSP2 040611Z 23000KT 22/14 A3008 RMK A01 T02170136  RH  060%=      5-min Rain = 0
KSP2 040612Z 23000KT 22/14 A3008 RMK A01 T02170136  RH  060%=      5-min Rain = 0
KSP2 040613Z 23000KT 22/14 A3008 RMK A01 T02170137  RH  060%=      5-min Rain = 0
KSP2 040614Z 23000KT 22/14 A3008 RMK A01 T02160136  RH  060%=      5-min Rain = 0
KSP2 040615Z 23000KT 22/14 A3008 RMK A01 T02150136  RH  061%=      5-min Rain = 0
KSP2 040616Z 23000KT 22/14 A3008 RMK A01 T02150137  RH  061%=      5-min Rain = 0
KSP2 040617Z 00000KT 22/14 A3008 RMK A01 T02150137  RH  061%=      5-min Rain = 0
KSP2 040618Z 00000KT 21/14 A3008 RMK A01 T02140137  RH  061%=      5-min Rain = 0
KSP2 040619Z 00000KT 21/14 A3008 RMK A01 T02140137  RH  061%=      5-min Rain = 0
KSP2 040620Z 00000KT 21/14 A3008 RMK A01 T02140137  RH  062%=      5-min Rain = 0
KSP2 040621Z 00000KT 21/14 A3008 RMK A01 T02140137  RH  061%=      5-min Rain = 0
KSP2 040622Z 00000KT 22/14 A3008 RMK A01 T02150138  RH  061%=      5-min Rain = 0
KSP2 040623Z 00000KT 22/14 A3008 RMK A01 T02160139  RH  061%=      5-min Rain = 0
KSP2 040624Z 00000KT 22/14 A3008 RMK A01 T02180139  RH  061%=      5-min Rain = 0
KSP2 040625Z 00000KT 22/14 A3008 RMK A01 T02190138  RH  060%=      5-min Rain = 0
KSP2 040626Z 00000KT 22/14 A3008 RMK A01 T02210137  RH  059%=      5-min Rain = 0
KSP2 040627Z 00000KT 22/14 A3008 RMK A01 T02210136  RH  059%=      5-min Rain = 0
KSP2 040628Z 00000KT 22/14 A3008 RMK A01 T02210136  RH  059%=      5-min Rain = 0
KSP2 040629Z 00000KT 22/14 A3008 RMK A01 T02210136  RH  059%=      5-min Rain = 0
KSP2 040630Z 12000KT 22/14 A3008 RMK A01 T02190136  RH  059%=      5-min Rain = 0
KSP2 040631Z 08000KT 22/14 A3008 RMK A01 T02180136  RH  059%=      5-min Rain = 0
KSP2 040632Z 00000KT 22/14 A3008 RMK A01 T02180135  RH  059%=      5-min Rain = 0
KSP2 040633Z 18000KT 22/14 A3008 RMK A01 T02170135  RH  059%=      5-min Rain = 0
KSP2 040634Z 20001KT 22/14 A3008 RMK A01 T02180135  RH  059%=      5-min Rain = 0
KSP2 040635Z 17001KT 22/14 A3008 RMK A01 T02170136  RH  060%=      5-min Rain = 0
KSP2 040636Z 19002KT 22/14 A3008 RMK A01 T02150136  RH  061%=      5-min Rain = 0
KSP2 040637Z 18001KT 22/14 A3008 RMK A01 T02150136  RH  061%=      5-min Rain = 0
KSP2 040638Z 19002KT 21/14 A3007 RMK A01 T02140136  RH  061%=      5-min Rain = 0
KSP2 040639Z 18002KT 21/14 A3007 RMK A01 T02140136  RH  061%=      5-min Rain = 0
KSP2 040640Z 19002KT 21/14 A3007 RMK A01 T02140137  RH  062%=      5-min Rain = 0
KSP2 040641Z 19002KT 21/14 A3007 RMK A01 T02140136  RH  061%=      5-min Rain = 0
KSP2 040642Z 19002KT 21/14 A3007 RMK A01 T02140136  RH  061%=      5-min Rain = 0
KSP2 040643Z 19002KT 21/14 A3007 RMK A01 T02140135  RH  061%=      5-min Rain = 0
KSP2 040644Z 19001KT 21/14 A3007 RMK A01 T02130136  RH  061%=      5-min Rain = 0
KSP2 040645Z 19001KT 21/14 A3007 RMK A01 T02120135  RH  061%=      5-min Rain = 0
KSP2 040646Z 19001KT 21/14 A3007 RMK A01 T02120136  RH  062%=      5-min Rain = 0
KSP2 040647Z 19001KT 21/14 A3007 RMK A01 T02110136  RH  062%=      5-min Rain = 0
KSP2 040648Z 19001KT 21/14 A3007 RMK A01 T02110137  RH  062%=      5-min Rain = 0
KSP2 040649Z 19001KT 21/14 A3007 RMK A01 T02110136  RH  062%=      5-min Rain = 0
KSP2 040650Z 19001KT 21/14 A3007 RMK A01 T02110136  RH  062%=      5-min Rain = 0
KSP2 040651Z 20001KT 21/14 A3007 RMK A01 T02110136  RH  062%=      5-min Rain = 0
KSP2 040652Z 20001KT 21/14 A3007 RMK A01 T02110136  RH  062%=      5-min Rain = 0
KSP2 040653Z 20001KT 21/14 A3007 RMK A01 T02110136  RH  062%=      5-min Rain = 0
KSP2 040654Z 20001KT 21/14 A3007 RMK A01 T02110136  RH  062%=      5-min Rain = 0
KSP2 040655Z 20001KT 21/14 A3007 RMK A01 T02100137  RH  063%=      5-min Rain = 0
KSP2 040656Z 21001KT 21/14 A3007 RMK A01 T02100136  RH  063%=      5-min Rain = 0
KSP2 040657Z 21001KT 21/14 A3007 RMK A01 T02100136  RH  063%=      5-min Rain = 0
KSP2 040658Z 20001KT 21/14 A3007 RMK A01 T02100136  RH  063%=      5-min Rain = 0
KSP2 040659Z 20001KT 21/14 A3007 RMK A01 T02090137  RH  063%=      5-min Rain = 0
KSP2 040700Z 20001KT 21/14 A3007 RMK A01 T02090137  RH  063%=      5-min Rain = 0
KSP2 040701Z 20001KT 21/14 A3007 RMK A01 T02090137  RH  063%=      5-min Rain = 0
KSP2 040702Z 20001KT 21/14 A3007 RMK A01 T02090136  RH  063%=      5-min Rain = 0
KSP2 040703Z 20001KT 21/14 A3007 RMK A01 T02090136  RH  063%=      5-min Rain = 0
KSP2 040704Z 20001KT 21/14 A3007 RMK A01 T02090136  RH  063%=      5-min Rain = 0
KSP2 040705Z 20001KT 21/14 A3007 RMK A01 T02090136  RH  063%=      5-min Rain = 0
KSP2 040706Z 20001KT 21/14 A3007 RMK A01 T02080136  RH  063%=      5-min Rain = 0
KSP2 040707Z 20001KT 21/14 A3007 RMK A01 T02080136  RH  063%=      5-min Rain = 0
KSP2 040708Z 20001KT 21/14 A3007 RMK A01 T02080136  RH  063%=      5-min Rain = 0
KSP2 040709Z 20001KT 21/14 A3007 RMK A01 T02080136  RH  063%=      5-min Rain = 0
KSP2 040710Z 20001KT 21/14 A3007 RMK A01 T02080136  RH  064%=      5-min Rain = 0
KSP2 040711Z 20001KT 21/14 A3007 RMK A01 T02070136  RH  064%=      5-min Rain = 0
KSP2 040712Z 20001KT 21/14 A3007 RMK A01 T02080136  RH  063%=      5-min Rain = 0
KSP2 040713Z 20000KT 21/14 A3007 RMK A01 T02080136  RH  063%=      5-min Rain = 0
KSP2 040714Z 20001KT 21/14 A3007 RMK A01 T02080136  RH  063%=      5-min Rain = 0
KSP2 040715Z 18001KT 21/14 A3007 RMK A01 T02090136  RH  063%=      5-min Rain = 0
KSP2 040716Z 19000KT 21/14 A3007 RMK A01 T02100135  RH  062%=      5-min Rain = 0
KSP2 040717Z 19001KT 21/14 A3007 RMK A01 T02100135  RH  062%=      5-min Rain = 0
KSP2 040718Z 22001KT 21/14 A3007 RMK A01 T02100136  RH  063%=      5-min Rain = 0
KSP2 040719Z 21001KT 21/14 A3007 RMK A01 T02100137  RH  063%=      5-min Rain = 0
KSP2 040720Z 20002KT 21/14 A3007 RMK A01 T02100139  RH  064%=      5-min Rain = 0
KSP2 040721Z 22002KT 21/14 A3007 RMK A01 T02100138  RH  063%=      5-min Rain = 0
KSP2 040722Z 20002KT 21/14 A3007 RMK A01 T02100137  RH  063%=      5-min Rain = 0
KSP2 040723Z 20002KT 21/14 A3007 RMK A01 T02090136  RH  063%=      5-min Rain = 0
KSP2 040724Z 20002KT 21/14 A3006 RMK A01 T02090136  RH  063%=      5-min Rain = 0
KSP2 040725Z 21001KT 21/14 A3006 RMK A01 T02090136  RH  063%=      5-min Rain = 0
KSP2 040726Z 21001KT 21/14 A3006 RMK A01 T02080136  RH  063%=      5-min Rain = 0
KSP2 040727Z 21001KT 21/14 A3006 RMK A01 T02080135  RH  063%=      5-min Rain = 0
KSP2 040728Z 21002KT 21/14 A3006 RMK A01 T02070136  RH  063%=      5-min Rain = 0
KSP2 040729Z 21001KT 21/14 A3006 RMK A01 T02080135  RH  063%=      5-min Rain = 0
KSP2 040730Z 22002KT 21/14 A3006 RMK A01 T02090136  RH  063%=      5-min Rain = 0
KSP2 040731Z 23001KT 21/14 A3006 RMK A01 T02100137  RH  063%=      5-min Rain = 0
KSP2 040732Z 24001KT 21/14 A3007 RMK A01 T02120136  RH  062%=      5-min Rain = 0
KSP2 040733Z 24001KT 21/14 A3007 RMK A01 T02130139  RH  063%=      5-min Rain = 0
KSP2 040734Z 24001KT 21/14 A3007 RMK A01 T02130138  RH  062%=      5-min Rain = 0
KSP2 040735Z 24000KT 21/14 A3007 RMK A01 T02130137  RH  062%=      5-min Rain = 0
KSP2 040736Z 24000KT 21/14 A3007 RMK A01 T02120139  RH  063%=      5-min Rain = 0
KSP2 040737Z 24000KT 21/14 A3007 RMK A01 T02120139  RH  063%=      5-min Rain = 0
KSP2 040738Z 24000KT 21/14 A3007 RMK A01 T02120139  RH  063%=      5-min Rain = 0
KSP2 040739Z 24000KT 21/14 A3007 RMK A01 T02110139  RH  064%=      5-min Rain = 0
KSP2 040740Z 00000KT 21/14 A3007 RMK A01 T02110139  RH  064%=      5-min Rain = 0
KSP2 040741Z 21000KT 21/14 A3007 RMK A01 T02110139  RH  064%=      5-min Rain = 0
KSP2 040742Z 23000KT 21/14 A3007 RMK A01 T02100139  RH  064%=      5-min Rain = 0
KSP2 040743Z 00000KT 21/14 A3007 RMK A01 T02100139  RH  064%=      5-min Rain = 0
KSP2 040744Z 27000KT 21/14 A3007 RMK A01 T02100138  RH  064%=      5-min Rain = 0
KSP2 040745Z 26001KT 21/14 A3007 RMK A01 T02090139  RH  064%=      5-min Rain = 0
KSP2 040746Z 27001KT 21/14 A3007 RMK A01 T02100139  RH  064%=      5-min Rain = 0
KSP2 040747Z 27001KT 21/14 A3007 RMK A01 T02090139  RH  064%=      5-min Rain = 0
KSP2 040748Z 27001KT 21/14 A3007 RMK A01 T02090138  RH  064%=      5-min Rain = 0
KSP2 040749Z 27001KT 21/14 A3007 RMK A01 T02080138  RH  064%=      5-min Rain = 0
KSP2 040750Z 27001KT 21/14 A3007 RMK A01 T02080138  RH  064%=      5-min Rain = 0
KSP2 040751Z 27001KT 21/14 A3007 RMK A01 T02080136  RH  063%=      5-min Rain = 0
KSP2 040752Z 28001KT 21/14 A3007 RMK A01 T02080135  RH  063%=      5-min Rain = 0
KSP2 040753Z 28001KT 21/14 A3007 RMK A01 T02080136  RH  063%=      5-min Rain = 0
KSP2 040754Z 27001KT 21/14 A3007 RMK A01 T02070135  RH  063%=      5-min Rain = 0
KSP2 040755Z 26001KT 21/14 A3007 RMK A01 T02070135  RH  063%=      5-min Rain = 0
KSP2 040756Z 26001KT 21/14 A3007 RMK A01 T02070136  RH  063%=      5-min Rain = 0
KSP2 040757Z 26001KT 21/14 A3007 RMK A01 T02070135  RH  063%=      5-min Rain = 0
KSP2 040758Z 26001KT 21/14 A3007 RMK A01 T02070136  RH  064%=      5-min Rain = 0
KSP2 040759Z 26001KT 21/14 A3007 RMK A01 T02060136  RH  064%=      5-min Rain = 0
KSP2 040800Z 26001KT 21/14 A3007 RMK A01 T02050137  RH  065%=      5-min Rain = 0
KSP2 040801Z 25001KT 21/14 A3007 RMK A01 T02050137  RH  065%=      5-min Rain = 0
KSP2 040802Z 25001KT 21/14 A3007 RMK A01 T02050137  RH  065%=      5-min Rain = 0
KSP2 040803Z 25001KT 20/14 A3007 RMK A01 T02040136  RH  065%=      5-min Rain = 0
KSP2 040804Z 24001KT 20/14 A3007 RMK A01 T02040135  RH  064%=      5-min Rain = 0
KSP2 040805Z 22001KT 20/13 A3007 RMK A01 T02040134  RH  064%=      5-min Rain = 0
KSP2 040806Z 22001KT 20/14 A3007 RMK A01 T02040135  RH  064%=      5-min Rain = 0
KSP2 040807Z 22001KT 20/13 A3007 RMK A01 T02030134  RH  064%=      5-min Rain = 0
KSP2 040808Z 20001KT 20/13 A3007 RMK A01 T02030134  RH  064%=      5-min Rain = 0
KSP2 040809Z 20001KT 20/13 A3007 RMK A01 T02020134  RH  065%=      5-min Rain = 0
KSP2 040810Z 19001KT 20/13 A3007 RMK A01 T02020134  RH  065%=      5-min Rain = 0
KSP2 040811Z 19001KT 20/13 A3006 RMK A01 T02000134  RH  066%=      5-min Rain = 0
KSP2 040812Z 19001KT 20/14 A3006 RMK A01 T02000135  RH  066%=      5-min Rain = 0
KSP2 040813Z 19001KT 20/13 A3006 RMK A01 T02000134  RH  066%=      5-min Rain = 0
KSP2 040814Z 19001KT 20/13 A3006 RMK A01 T02000134  RH  066%=      5-min Rain = 0
KSP2 040815Z 18001KT 20/13 A3006 RMK A01 T02010134  RH  065%=      5-min Rain = 0
KSP2 040816Z 18001KT 20/13 A3006 RMK A01 T02010134  RH  065%=      5-min Rain = 0
KSP2 040817Z 18001KT 20/13 A3006 RMK A01 T02010134  RH  065%=      5-min Rain = 0
KSP2 040818Z 19001KT 20/13 A3006 RMK A01 T02010134  RH  065%=      5-min Rain = 0
KSP2 040819Z 20001KT 20/13 A3007 RMK A01 T02000133  RH  065%=      5-min Rain = 0
KSP2 040820Z 20002KT 20/13 A3006 RMK A01 T02000133  RH  065%=      5-min Rain = 0
KSP2 040821Z 20001KT 20/13 A3006 RMK A01 T01990133  RH  066%=      5-min Rain = 0
KSP2 040822Z 20001KT 20/13 A3006 RMK A01 T01990134  RH  066%=      5-min Rain = 0
KSP2 040823Z 19001KT 20/13 A3006 RMK A01 T01990134  RH  066%=      5-min Rain = 0
KSP2 040824Z 19001KT 20/13 A3006 RMK A01 T01990134  RH  066%=      5-min Rain = 0
KSP2 040825Z 19001KT 20/13 A3006 RMK A01 T01990134  RH  066%=      5-min Rain = 0
KSP2 040826Z 20001KT 20/13 A3006 RMK A01 T02000134  RH  066%=      5-min Rain = 0
KSP2 040827Z 22001KT 20/13 A3006 RMK A01 T02000133  RH  065%=      5-min Rain = 0
KSP2 040828Z 23001KT 20/13 A3006 RMK A01 T02000133  RH  065%=      5-min Rain = 0
KSP2 040829Z 22002KT 20/13 A3006 RMK A01 T01990133  RH  065%=      5-min Rain = 0
KSP2 040830Z 22002KT 20/13 A3007 RMK A01 T01990133  RH  066%=      5-min Rain = 0
KSP2 040831Z 21002KT 20/13 A3007 RMK A01 T02000134  RH  066%=      5-min Rain = 0
KSP2 040832Z 21002KT 20/13 A3007 RMK A01 T02000134  RH  066%=      5-min Rain = 0
KSP2 040833Z 20002KT 20/13 A3007 RMK A01 T02010134  RH  065%=      5-min Rain = 0
KSP2 040834Z 19002KT 20/13 A3006 RMK A01 T02010134  RH  065%=      5-min Rain = 0
KSP2 040835Z 20002KT 20/14 A3006 RMK A01 T02010135  RH  066%=      5-min Rain = 0
KSP2 040836Z 20003KT 20/14 A3006 RMK A01 T02010136  RH  066%=      5-min Rain = 0
KSP2 040837Z 20003KT 20/14 A3006 RMK A01 T02020137  RH  066%=      5-min Rain = 0
KSP2 040838Z 20003KT 20/14 A3006 RMK A01 T02020136  RH  066%=      5-min Rain = 0
KSP2 040839Z 21003KT 20/14 A3006 RMK A01 T02030137  RH  066%=      5-min Rain = 0
KSP2 040840Z 22003KT 20/14 A3006 RMK A01 T02030136  RH  065%=      5-min Rain = 0
KSP2 040841Z 22002KT 20/14 A3006 RMK A01 T02030136  RH  065%=      5-min Rain = 0
KSP2 040842Z 22002KT 20/14 A3006 RMK A01 T02040136  RH  065%=      5-min Rain = 0
KSP2 040843Z 21002KT 20/14 A3006 RMK A01 T02030135  RH  065%=      5-min Rain = 0
KSP2 040844Z 21002KT 20/14 A3006 RMK A01 T02030135  RH  065%=      5-min Rain = 0
KSP2 040845Z 22002KT 20/14 A3006 RMK A01 T02020135  RH  065%=      5-min Rain = 0
KSP2 040846Z 23002KT 20/14 A3007 RMK A01 T02020135  RH  065%=      5-min Rain = 0
KSP2 040847Z 23002KT 20/14 A3007 RMK A01 T02020136  RH  066%=      5-min Rain = 0
KSP2 040848Z 23002KT 20/14 A3007 RMK A01 T02010137  RH  066%=      5-min Rain = 0
KSP2 040849Z 23002KT 20/14 A3007 RMK A01 T02010137  RH  067%=      5-min Rain = 0
KSP2 040850Z 22003KT 20/14 A3007 RMK A01 T02010137  RH  066%=      5-min Rain = 0
KSP2 040851Z 22003KT 20/14 A3007 RMK A01 T02010137  RH  066%=      5-min Rain = 0
KSP2 040852Z 22003KT 20/14 A3007 RMK A01 T02010137  RH  067%=      5-min Rain = 0
KSP2 040853Z 23002KT 20/14 A3007 RMK A01 T02000137  RH  067%=      5-min Rain = 0
KSP2 040854Z 24002KT 20/14 A3007 RMK A01 T02000137  RH  067%=      5-min Rain = 0
KSP2 040855Z 25002KT 20/14 A3007 RMK A01 T01990137  RH  067%=      5-min Rain = 0
KSP2 040856Z 25002KT 20/14 A3007 RMK A01 T01990138  RH  068%=      5-min Rain = 0
KSP2 040857Z 24002KT 20/14 A3007 RMK A01 T01990138  RH  068%=      5-min Rain = 0
KSP2 040858Z 24002KT 20/14 A3007 RMK A01 T01990138  RH  068%=      5-min Rain = 0
KSP2 040859Z 25002KT 20/14 A3007 RMK A01 T01990138  RH  068%=      5-min Rain = 0
KSP2 040900Z 24002KT 20/14 A3007 RMK A01 T01990138  RH  068%=      5-min Rain = 0
KSP2 040901Z 25002KT 20/14 A3007 RMK A01 T02000138  RH  068%=      5-min Rain = 0
KSP2 040902Z 24002KT 20/14 A3008 RMK A01 T02000138  RH  068%=      5-min Rain = 0
KSP2 040903Z 25002KT 20/14 A3008 RMK A01 T02000138  RH  068%=      5-min Rain = 0
KSP2 040904Z 24002KT 20/14 A3008 RMK A01 T02010139  RH  068%=      5-min Rain = 0
KSP2 040905Z 25002KT 20/14 A3008 RMK A01 T02010139  RH  068%=      5-min Rain = 0
KSP2 040906Z 24002KT 20/14 A3008 RMK A01 T02010140  RH  068%=      5-min Rain = 0
KSP2 040907Z 24002KT 20/14 A3008 RMK A01 T02020141  RH  068%=      5-min Rain = 0
KSP2 040908Z 23002KT 20/14 A3008 RMK A01 T02030140  RH  067%=      5-min Rain = 0
KSP2 040909Z 23003KT 20/14 A3008 RMK A01 T02030140  RH  067%=      5-min Rain = 0
KSP2 040910Z 22002KT 20/14 A3008 RMK A01 T02030141  RH  068%=      5-min Rain = 0
KSP2 040911Z 23002KT 20/14 A3008 RMK A01 T02030141  RH  068%=      5-min Rain = 0
KSP2 040912Z 23002KT 20/14 A3008 RMK A01 T02020141  RH  068%=      5-min Rain = 0
KSP2 040913Z 23002KT 20/14 A3008 RMK A01 T02020141  RH  068%=      5-min Rain = 0
KSP2 040914Z 23002KT 20/14 A3008 RMK A01 T02020141  RH  068%=      5-min Rain = 0
KSP2 040915Z 23002KT 20/14 A3008 RMK A01 T02020141  RH  068%=      5-min Rain = 0
KSP2 040916Z 24002KT 20/14 A3008 RMK A01 T02020141  RH  068%=      5-min Rain = 0
KSP2 040917Z 24002KT 20/14 A3008 RMK A01 T02020140  RH  068%=      5-min Rain = 0
KSP2 040918Z 24002KT 20/14 A3008 RMK A01 T02030140  RH  067%=      5-min Rain = 0
KSP2 040919Z 24002KT 20/14 A3008 RMK A01 T02020140  RH  067%=      5-min Rain = 0
KSP2 040920Z 25002KT 20/14 A3008 RMK A01 T02020141  RH  068%=      5-min Rain = 0
KSP2 040921Z 25002KT 20/14 A3008 RMK A01 T02020142  RH  068%=      5-min Rain = 0
KSP2 040922Z 26002KT 20/14 A3008 RMK A01 T02020143  RH  069%=      5-min Rain = 0
KSP2 040923Z 27002KT 20/14 A3008 RMK A01 T02020144  RH  069%=      5-min Rain = 0
KSP2 040924Z 27002KT 20/15 A3008 RMK A01 T02020145  RH  070%=      5-min Rain = 0
KSP2 040925Z 27003KT 20/15 A3008 RMK A01 T02020146  RH  070%=      5-min Rain = 0
KSP2 040926Z 28003KT 20/15 A3008 RMK A01 T02030146  RH  069%=      5-min Rain = 0
KSP2 040927Z 28005KT 21/15 A3008 RMK A01 T02050145  RH  068%=      5-min Rain = 0
KSP2 040928Z 29007KT 21/15 A3008 RMK A01 T02070145  RH  068%=      5-min Rain = 0
KSP2 040929Z 30009KT 21/15 A3008 RMK A01 T02110150  RH  068%=      5-min Rain = 0
KSP2 040930Z 32010KT 22/15 A3008 RMK A01 T02180149  RH  065%=      5-min Rain = 0
KSP2 040931Z 31009KT 22/15 A3008 RMK A01 T02210145  RH  062%=      5-min Rain = 0
KSP2 040932Z 31007KT 22/14 A3008 RMK A01 T02210143  RH  061%=      5-min Rain = 0
KSP2 040933Z 30007KT 22/14 A3008 RMK A01 T02210142  RH  061%=      5-min Rain = 0
KSP2 040934Z 31007KT 22/14 A3008 RMK A01 T02210142  RH  061%=      5-min Rain = 0
KSP2 040935Z 30007KT 22/14 A3008 RMK A01 T02210142  RH  061%=      5-min Rain = 0
KSP2 040936Z 28008KT 22/14 A3008 RMK A01 T02230144  RH  061%=      5-min Rain = 0
KSP2 040937Z 29007KT 23/15 A3008 RMK A01 T02260145  RH  060%=      5-min Rain = 0
KSP2 040938Z 30007KT 23/15 A3008 RMK A01 T02280145  RH  060%=      5-min Rain = 0
KSP2 040939Z 30006KT 23/15 A3008 RMK A01 T02280145  RH  059%=      5-min Rain = 0
KSP2 040940Z 28005KT 23/14 A3008 RMK A01 T02280144  RH  059%=      5-min Rain = 0
KSP2 040941Z 28005KT 23/14 A3008 RMK A01 T02300144  RH  059%=      5-min Rain = 0
KSP2 040942Z 30007KT 23/15 A3008 RMK A01 T02300145  RH  059%=      5-min Rain = 0
KSP2 040943Z 29006KT 23/15 A3008 RMK A01 T02290145  RH  059%=      5-min Rain = 0
KSP2 040944Z 29006KT 23/15 A3008 RMK A01 T02280145  RH  059%=      5-min Rain = 0
KSP2 040945Z 30005KT 23/14 A3008 RMK A01 T02260144  RH  060%=      5-min Rain = 0
KSP2 040946Z 30007KT 23/14 A3008 RMK A01 T02250144  RH  060%=      5-min Rain = 0
KSP2 040947Z 29007KT 22/15 A3008 RMK A01 T02240145  RH  061%=      5-min Rain = 0
KSP2 040948Z 29006KT 22/14 A3009 RMK A01 T02230144  RH  061%=      5-min Rain = 0
KSP2 040949Z 30007KT 22/14 A3009 RMK A01 T02230144  RH  061%=      5-min Rain = 0
KSP2 040950Z 30007KT 22/15 A3009 RMK A01 T02220145  RH  061%=      5-min Rain = 0
KSP2 040951Z 30008KT 22/15 A3009 RMK A01 T02230145  RH  061%=      5-min Rain = 0
KSP2 040952Z 30007KT 22/15 A3009 RMK A01 T02240145  RH  061%=      5-min Rain = 0
KSP2 040953Z 30007KT 23/15 A3009 RMK A01 T02260145  RH  060%=      5-min Rain = 0
KSP2 040954Z 30007KT 23/15 A3009 RMK A01 T02270146  RH  060%=      5-min Rain = 0
KSP2 040955Z 30006KT 23/15 A3009 RMK A01 T02270145  RH  060%=      5-min Rain = 0
KSP2 040956Z 30006KT 23/15 A3009 RMK A01 T02260145  RH  060%=      5-min Rain = 0
KSP2 040957Z 31006KT 23/14 A3009 RMK A01 T02260144  RH  060%=      5-min Rain = 0
KSP2 040958Z 31006KT 23/14 A3009 RMK A01 T02260144  RH  060%=      5-min Rain = 0
KSP2 040959Z 31005KT 23/14 A3009 RMK A01 T02250144  RH  060%=      5-min Rain = 0
KSP2 041000Z 31004KT 23/14 A3009 RMK A01 T02250144  RH  060%=      5-min Rain = 0
KSP2 041001Z 31004KT 23/14 A3009 RMK A01 T02250143  RH  060%=      5-min Rain = 0
KSP2 041002Z 32005KT 22/14 A3009 RMK A01 T02240143  RH  060%=      5-min Rain = 0
KSP2 041003Z 32005KT 22/14 A3009 RMK A01 T02240142  RH  060%=      5-min Rain = 0
KSP2 041004Z 32004KT 22/14 A3009 RMK A01 T02240142  RH  060%=      5-min Rain = 0
KSP2 041005Z 33004KT 22/14 A3009 RMK A01 T02240141  RH  059%=      5-min Rain = 0
KSP2 041006Z 32005KT 22/14 A3009 RMK A01 T02240140  RH  059%=      5-min Rain = 0
KSP2 041007Z 32005KT 22/14 A3009 RMK A01 T02240140  RH  059%=      5-min Rain = 0
KSP2 041008Z 32005KT 22/14 A3009 RMK A01 T02240140  RH  059%=      5-min Rain = 0
KSP2 041009Z 32005KT 22/14 A3009 RMK A01 T02240140  RH  059%=      5-min Rain = 0
KSP2 041010Z 32005KT 22/14 A3009 RMK A01 T02240140  RH  059%=      5-min Rain = 0
KSP2 041011Z 32005KT 22/14 A3009 RMK A01 T02240140  RH  059%=      5-min Rain = 0
KSP2 041012Z 32005KT 22/14 A3009 RMK A01 T02240140  RH  059%=      5-min Rain = 0
KSP2 041013Z 33005KT 22/14 A3009 RMK A01 T02240140  RH  059%=      5-min Rain = 0
KSP2 041014Z 32005KT 23/14 A3009 RMK A01 T02250140  RH  059%=      5-min Rain = 0
KSP2 041015Z 31005KT 22/14 A3009 RMK A01 T02240140  RH  059%=      5-min Rain = 0
KSP2 041016Z 31006KT 22/14 A3009 RMK A01 T02240140  RH  059%=      5-min Rain = 0
KSP2 041017Z 31006KT 23/14 A3009 RMK A01 T02250141  RH  059%=      5-min Rain = 0
KSP2 041018Z 29005KT 23/14 A3009 RMK A01 T02260141  RH  059%=      5-min Rain = 0
KSP2 041019Z 29004KT 23/14 A3009 RMK A01 T02260142  RH  059%=      5-min Rain = 0
KSP2 041020Z 29006KT 23/14 A3009 RMK A01 T02250142  RH  059%=      5-min Rain = 0
KSP2 041021Z 29007KT 23/14 A3009 RMK A01 T02250142  RH  060%=      5-min Rain = 0
KSP2 041022Z 30005KT 22/14 A3009 RMK A01 T02240142  RH  060%=      5-min Rain = 0
KSP2 041023Z 30005KT 22/14 A3009 RMK A01 T02230142  RH  060%=      5-min Rain = 0
KSP2 041024Z 31004KT 22/14 A3009 RMK A01 T02220142  RH  060%=      5-min Rain = 0
KSP2 041025Z 30004KT 22/14 A3009 RMK A01 T02220142  RH  060%=      5-min Rain = 0
KSP2 041026Z 30005KT 22/14 A3009 RMK A01 T02220141  RH  060%=      5-min Rain = 0
KSP2 041027Z 30005KT 22/14 A3009 RMK A01 T02220141  RH  060%=      5-min Rain = 0
KSP2 041028Z 31006KT 22/14 A3009 RMK A01 T02220141  RH  060%=      5-min Rain = 0
KSP2 041029Z 32006KT 22/14 A3009 RMK A01 T02220141  RH  060%=      5-min Rain = 0
KSP2 041030Z 32005KT 22/14 A3009 RMK A01 T02220140  RH  060%=      5-min Rain = 0
KSP2 041031Z 32007KT 22/14 A3009 RMK A01 T02220139  RH  059%=      5-min Rain = 0
KSP2 041032Z 31007KT 22/14 A3009 RMK A01 T02230139  RH  059%=      5-min Rain = 0
KSP2 041033Z 31008KT 22/14 A3009 RMK A01 T02240140  RH  059%=      5-min Rain = 0
KSP2 041034Z 31008KT 22/14 A3008 RMK A01 T02240140  RH  059%=      5-min Rain = 0
KSP2 041035Z 31008KT 23/14 A3008 RMK A01 T02250140  RH  059%=      5-min Rain = 0
KSP2 041036Z 30007KT 23/14 A3008 RMK A01 T02260141  RH  059%=      5-min Rain = 0
KSP2 041037Z 30007KT 23/14 A3008 RMK A01 T02260142  RH  059%=      5-min Rain = 0
KSP2 041038Z 31007KT 23/14 A3008 RMK A01 T02260142  RH  059%=      5-min Rain = 0
KSP2 041039Z 31007KT 23/14 A3008 RMK A01 T02260143  RH  059%=      5-min Rain = 0
KSP2 041040Z 31008KT 23/14 A3008 RMK A01 T02270143  RH  059%=      5-min Rain = 0
KSP2 041041Z 31006KT 23/14 A3008 RMK A01 T02280143  RH  059%=      5-min Rain = 0
KSP2 041042Z 28005KT 23/14 A3008 RMK A01 T02290143  RH  058%=      5-min Rain = 0
KSP2 041043Z 27006KT 23/14 A3008 RMK A01 T02280143  RH  058%=      5-min Rain = 0
KSP2 041044Z 27006KT 23/14 A3008 RMK A01 T02270143  RH  059%=      5-min Rain = 0
KSP2 041045Z 30008KT 23/14 A3008 RMK A01 T02260142  RH  059%=      5-min Rain = 0
KSP2 041046Z 30007KT 23/14 A3008 RMK A01 T02270142  RH  059%=      5-min Rain = 0
KSP2 041047Z 30007KT 23/14 A3008 RMK A01 T02290143  RH  058%=      5-min Rain = 0
KSP2 041048Z 30007KT 23/14 A3008 RMK A01 T02300143  RH  058%=      5-min Rain = 0
KSP2 041049Z 30005KT 23/14 A3008 RMK A01 T02300143  RH  058%=      5-min Rain = 0
KSP2 041050Z 29004KT 23/14 A3008 RMK A01 T02290143  RH  058%=      5-min Rain = 0
KSP2 041051Z 30004KT 23/14 A3008 RMK A01 T02280142  RH  058%=      5-min Rain = 0
KSP2 041052Z 30005KT 23/14 A3008 RMK A01 T02270142  RH  059%=      5-min Rain = 0
KSP2 041053Z 30006KT 23/14 A3008 RMK A01 T02250142  RH  059%=      5-min Rain = 0
KSP2 041054Z 30006KT 23/14 A3008 RMK A01 T02250143  RH  060%=      5-min Rain = 0
KSP2 041055Z 31005KT 22/14 A3008 RMK A01 T02240143  RH  060%=      5-min Rain = 0
KSP2 041056Z 31004KT 22/14 A3008 RMK A01 T02240144  RH  060%=      5-min Rain = 0
KSP2 041057Z 32004KT 22/14 A3008 RMK A01 T02240144  RH  060%=      5-min Rain = 0
KSP2 041058Z 32004KT 22/14 A3008 RMK A01 T02240144  RH  060%=      5-min Rain = 0
KSP2 041059Z 32005KT 22/14 A3008 RMK A01 T02240144  RH  060%=      5-min Rain = 0
KSP2 041100Z 32004KT 22/14 A3008 RMK A01 T02230143  RH  061%=      5-min Rain = 0
KSP2 041101Z 32005KT 22/14 A3008 RMK A01 T02220142  RH  060%=      5-min Rain = 0
KSP2 041102Z 32005KT 22/14 A3008 RMK A01 T02220142  RH  060%=      5-min Rain = 0
KSP2 041103Z 32005KT 22/14 A3008 RMK A01 T02210141  RH  060%=      5-min Rain = 0
KSP2 041104Z 33005KT 22/14 A3008 RMK A01 T02210141  RH  060%=      5-min Rain = 0
KSP2 041105Z 33005KT 22/14 A3008 RMK A01 T02210141  RH  060%=      5-min Rain = 0
KSP2 041106Z 33005KT 22/14 A3008 RMK A01 T02200141  RH  061%=      5-min Rain = 0
KSP2 041107Z 34005KT 22/14 A3008 RMK A01 T02200142  RH  061%=      5-min Rain = 0
KSP2 041108Z 35005KT 22/14 A3008 RMK A01 T02190142  RH  061%=      5-min Rain = 0
KSP2 041109Z 35006KT 22/14 A3008 RMK A01 T02190141  RH  061%=      5-min Rain = 0
KSP2 041110Z 34007KT 22/14 A3008 RMK A01 T02190141  RH  061%=      5-min Rain = 0
KSP2 041111Z 34007KT 22/14 A3008 RMK A01 T02200140  RH  061%=      5-min Rain = 0
KSP2 041112Z 34008KT 22/14 A3008 RMK A01 T02210141  RH  060%=      5-min Rain = 0
KSP2 041113Z 34008KT 22/14 A3008 RMK A01 T02220140  RH  060%=      5-min Rain = 0
KSP2 041114Z 34008KT 22/14 A3008 RMK A01 T02230140  RH  059%=      5-min Rain = 0
KSP2 041115Z 35008KT 22/14 A3008 RMK A01 T02240141  RH  059%=      5-min Rain = 0
KSP2 041116Z 34007KT 23/14 A3008 RMK A01 T02250141  RH  059%=      5-min Rain = 0
KSP2 041117Z 34007KT 23/14 A3008 RMK A01 T02260140  RH  058%=      5-min Rain = 0
KSP2 041118Z 35006KT 23/14 A3008 RMK A01 T02280141  RH  058%=      5-min Rain = 0
KSP2 041119Z 34006KT 23/14 A3008 RMK A01 T02290141  RH  058%=      5-min Rain = 0
KSP2 041120Z 35005KT 23/14 A3008 RMK A01 T02300141  RH  057%=      5-min Rain = 0
KSP2 041121Z 34004KT 23/14 A3008 RMK A01 T02310141  RH  057%=      5-min Rain = 0
KSP2 041122Z 35004KT 23/14 A3008 RMK A01 T02320141  RH  057%=      5-min Rain = 0
KSP2 041123Z 34004KT 23/14 A3008 RMK A01 T02330142  RH  057%=      5-min Rain = 0
KSP2 041124Z 34003KT 23/14 A3008 RMK A01 T02330141  RH  056%=      5-min Rain = 0
KSP2 041125Z 33002KT 23/14 A3008 RMK A01 T02320141  RH  057%=      5-min Rain = 0
KSP2 041126Z 32001KT 23/14 A3008 RMK A01 T02320141  RH  057%=      5-min Rain = 0
KSP2 041127Z 32002KT 23/14 A3008 RMK A01 T02310141  RH  057%=      5-min Rain = 0
KSP2 041128Z 32002KT 23/14 A3008 RMK A01 T02310142  RH  057%=      5-min Rain = 0
KSP2 041129Z 32002KT 23/14 A3008 RMK A01 T02310142  RH  057%=      5-min Rain = 0
KSP2 041130Z 33002KT 23/14 A3008 RMK A01 T02310142  RH  057%=      5-min Rain = 0
KSP2 041131Z 33002KT 23/14 A3008 RMK A01 T02300142  RH  057%=      5-min Rain = 0
KSP2 041132Z 33002KT 23/14 A3008 RMK A01 T02300142  RH  058%=      5-min Rain = 0
KSP2 041133Z 35002KT 23/14 A3008 RMK A01 T02300142  RH  058%=      5-min Rain = 0
KSP2 041134Z 35002KT 23/14 A3008 RMK A01 T02290142  RH  058%=      5-min Rain = 0
KSP2 041135Z 35001KT 23/14 A3008 RMK A01 T02290142  RH  058%=      5-min Rain = 0
KSP2 041136Z 35001KT 23/14 A3008 RMK A01 T02290142  RH  058%=      5-min Rain = 0
KSP2 041137Z 32001KT 23/14 A3008 RMK A01 T02280141  RH  058%=      5-min Rain = 0
KSP2 041138Z 34001KT 23/14 A3009 RMK A01 T02280142  RH  058%=      5-min Rain = 0
KSP2 041139Z 34002KT 23/14 A3009 RMK A01 T02280142  RH  058%=      5-min Rain = 0
KSP2 041140Z 35002KT 23/14 A3009 RMK A01 T02280142  RH  059%=      5-min Rain = 0
KSP2 041141Z 36002KT 23/14 A3009 RMK A01 T02270142  RH  059%=      5-min Rain = 0
KSP2 041142Z 34002KT 23/14 A3009 RMK A01 T02270142  RH  059%=      5-min Rain = 0
KSP2 041143Z 33002KT 23/14 A3009 RMK A01 T02260142  RH  059%=      5-min Rain = 0
KSP2 041144Z 33002KT 23/14 A3009 RMK A01 T02250141  RH  059%=      5-min Rain = 0
KSP2 041145Z 34003KT 22/14 A3009 RMK A01 T02240142  RH  060%=      5-min Rain = 0
KSP2 041146Z 34004KT 22/14 A3009 RMK A01 T02230142  RH  060%=      5-min Rain = 0
KSP2 041147Z 34005KT 22/14 A3009 RMK A01 T02230143  RH  061%=      5-min Rain = 0
KSP2 041148Z 35005KT 22/14 A3009 RMK A01 T02220143  RH  061%=      5-min Rain = 0
KSP2 041149Z 35005KT 22/14 A3009 RMK A01 T02220143  RH  061%=      5-min Rain = 0
KSP2 041150Z 35005KT 22/14 A3009 RMK A01 T02220143  RH  061%=      5-min Rain = 0
KSP2 041151Z 35005KT 22/14 A3009 RMK A01 T02220142  RH  061%=      5-min Rain = 0
KSP2 041152Z 35005KT 22/14 A3009 RMK A01 T02230143  RH  061%=      5-min Rain = 0
KSP2 041153Z 34004KT 22/14 A3009 RMK A01 T02230143  RH  060%=      5-min Rain = 0
KSP2 041154Z 35004KT 22/14 A3009 RMK A01 T02240143  RH  060%=      5-min Rain = 0
KSP2 041155Z 35004KT 22/14 A3009 RMK A01 T02240143  RH  060%=      5-min Rain = 0
KSP2 041156Z 35004KT 22/14 A3009 RMK A01 T02240143  RH  060%=      5-min Rain = 0
KSP2 041157Z 01003KT 22/14 A3009 RMK A01 T02230142  RH  060%=      5-min Rain = 0
KSP2 041158Z 02003KT 22/14 A3009 RMK A01 T02230143  RH  060%=      5-min Rain = 0
KSP2 041159Z 03004KT 22/14 A3009 RMK A01 T02220143  RH  061%=      5-min Rain = 0
KSP2 041200Z 03005KT 22/14 A3009 RMK A01 T02210143  RH  061%=      5-min Rain = 0
KSP2 041201Z 02004KT 22/14 A3009 RMK A01 T02200144  RH  062%=      5-min Rain = 0
KSP2 041202Z 03004KT 22/14 A3009 RMK A01 T02200144  RH  062%=      5-min Rain = 0
KSP2 041203Z 02004KT 22/15 A3009 RMK A01 T02200145  RH  062%=      5-min Rain = 0
KSP2 041204Z 02004KT 22/15 A3009 RMK A01 T02200145  RH  062%=      5-min Rain = 0
KSP2 041205Z 02004KT 22/15 A3009 RMK A01 T02200145  RH  062%=      5-min Rain = 0
KSP2 041206Z 02004KT 22/15 A3009 RMK A01 T02200145  RH  063%=      5-min Rain = 0
KSP2 041207Z 02004KT 22/15 A3009 RMK A01 T02200146  RH  063%=      5-min Rain = 0
KSP2 041208Z 01003KT 22/15 A3009 RMK A01 T02210146  RH  062%=      5-min Rain = 0
KSP2 041209Z 01004KT 22/15 A3009 RMK A01 T02210146  RH  062%=      5-min Rain = 0
KSP2 041210Z 01004KT 22/15 A3009 RMK A01 T02210146  RH  062%=      5-min Rain = 0
KSP2 041211Z 01003KT 22/15 A3009 RMK A01 T02210146  RH  062%=      5-min Rain = 0
KSP2 041212Z 02004KT 22/15 A3009 RMK A01 T02210146  RH  063%=      5-min Rain = 0
KSP2 041213Z 01004KT 22/15 A3009 RMK A01 T02210147  RH  063%=      5-min Rain = 0
KSP2 041214Z 00004KT 22/15 A3009 RMK A01 T02210148  RH  063%=      5-min Rain = 0
KSP2 041215Z 36003KT 22/15 A3009 RMK A01 T02220148  RH  063%=      5-min Rain = 0
KSP2 041216Z 01004KT 22/15 A3009 RMK A01 T02230149  RH  063%=      5-min Rain = 0
KSP2 041217Z 02004KT 22/15 A3009 RMK A01 T02240150  RH  063%=      5-min Rain = 0
KSP2 041218Z 02004KT 23/15 A3009 RMK A01 T02250150  RH  063%=      5-min Rain = 0
KSP2 041219Z 01003KT 23/15 A3009 RMK A01 T02270152  RH  062%=      5-min Rain = 0
KSP2 041220Z 02003KT 23/15 A3009 RMK A01 T02290152  RH  062%=      5-min Rain = 0
KSP2 041221Z 03003KT 23/15 A3009 RMK A01 T02300152  RH  061%=      5-min Rain = 0
KSP2 041222Z 03003KT 23/15 A3009 RMK A01 T02320153  RH  061%=      5-min Rain = 0
KSP2 041223Z 03004KT 23/15 A3008 RMK A01 T02330153  RH  061%=      5-min Rain = 0
KSP2 041224Z 03003KT 24/15 A3008 RMK A01 T02350154  RH  060%=      5-min Rain = 0
KSP2 041225Z 02003KT 24/15 A3008 RMK A01 T02360153  RH  060%=      5-min Rain = 0
KSP2 041226Z 01003KT 24/15 A3008 RMK A01 T02370154  RH  059%=      5-min Rain = 0
KSP2 041227Z 01003KT 24/15 A3008 RMK A01 T02380154  RH  059%=      5-min Rain = 0
KSP2 041228Z 01002KT 24/15 A3008 RMK A01 T02400154  RH  059%=      5-min Rain = 0
KSP2 041229Z 00002KT 24/16 A3008 RMK A01 T02400155  RH  059%=      5-min Rain = 0
KSP2 041230Z 35001KT 24/16 A3008 RMK A01 T02420155  RH  058%=      5-min Rain = 0
KSP2 041231Z 35001KT 24/16 A3008 RMK A01 T02430156  RH  058%=      5-min Rain = 0
KSP2 041232Z 36001KT 24/16 A3008 RMK A01 T02440156  RH  058%=      5-min Rain = 0
KSP2 041233Z 01002KT 25/16 A3008 RMK A01 T02450156  RH  057%=      5-min Rain = 0
KSP2 041234Z 02001KT 25/16 A3008 RMK A01 T02470156  RH  057%=      5-min Rain = 0
KSP2 041235Z 03001KT 25/16 A3008 RMK A01 T02480156  RH  056%=      5-min Rain = 0
KSP2 041236Z 03001KT 25/16 A3008 RMK A01 T02500157  RH  056%=      5-min Rain = 0
KSP2 041237Z 02001KT 25/16 A3008 RMK A01 T02520157  RH  056%=      5-min Rain = 0
KSP2 041238Z 35001KT 25/16 A3008 RMK A01 T02530158  RH  056%=      5-min Rain = 0
KSP2 041239Z 35001KT 25/16 A3008 RMK A01 T02540158  RH  055%=      5-min Rain = 0
KSP2 041240Z 01002KT 26/16 A3008 RMK A01 T02550158  RH  055%=      5-min Rain = 0
KSP2 041241Z 36001KT 26/16 A3008 RMK A01 T02560158  RH  055%=      5-min Rain = 0
KSP2 041242Z 00001KT 26/16 A3008 RMK A01 T02570158  RH  054%=      5-min Rain = 0
KSP2 041243Z 36002KT 26/16 A3008 RMK A01 T02590158  RH  054%=      5-min Rain = 0
KSP2 041244Z 01002KT 26/16 A3008 RMK A01 T02590158  RH  054%=      5-min Rain = 0
KSP2 041245Z 03001KT 26/16 A3008 RMK A01 T02610159  RH  053%=      5-min Rain = 0
KSP2 041246Z 04001KT 26/16 A3008 RMK A01 T02620159  RH  053%=      5-min Rain = 0
KSP2 041247Z 05001KT 26/16 A3007 RMK A01 T02630159  RH  053%=      5-min Rain = 0
KSP2 041248Z 05001KT 26/16 A3007 RMK A01 T02640159  RH  052%=      5-min Rain = 0
KSP2 041249Z 05001KT 27/16 A3007 RMK A01 T02650158  RH  052%=      5-min Rain = 0
KSP2 041250Z 05001KT 27/16 A3007 RMK A01 T02650157  RH  052%=      5-min Rain = 0
KSP2 041251Z 04001KT 27/16 A3007 RMK A01 T02650158  RH  052%=      5-min Rain = 0
KSP2 041252Z 04001KT 27/16 A3007 RMK A01 T02660159  RH  052%=      5-min Rain = 0
KSP2 041253Z 02001KT 27/16 A3007 RMK A01 T02660158  RH  051%=      5-min Rain = 0
KSP2 041254Z 03001KT 27/16 A3007 RMK A01 T02670158  RH  051%=      5-min Rain = 0
KSP2 041255Z 02000KT 27/16 A3007 RMK A01 T02670158  RH  051%=      5-min Rain = 0
KSP2 041256Z 00001KT 27/16 A3007 RMK A01 T02670157  RH  051%=      5-min Rain = 0
KSP2 041257Z 00001KT 27/16 A3007 RMK A01 T02680159  RH  051%=      5-min Rain = 0
KSP2 041258Z 00001KT 27/16 A3007 RMK A01 T02680158  RH  051%=      5-min Rain = 0
KSP2 041259Z 02002KT 27/16 A3007 RMK A01 T02680157  RH  051%=      5-min Rain = 0
KSP2 041300Z 02002KT 27/16 A3007 RMK A01 T02680157  RH  051%=      5-min Rain = 0
KSP2 041301Z 01001KT 27/16 A3007 RMK A01 T02680158  RH  051%=      5-min Rain = 0
KSP2 041302Z 34002KT 27/16 A3007 RMK A01 T02690158  RH  051%=      5-min Rain = 0
KSP2 041303Z 35002KT 27/16 A3007 RMK A01 T02700156  RH  050%=      5-min Rain = 0
KSP2 041304Z 00002KT 27/16 A3007 RMK A01 T02700155  RH  049%=      5-min Rain = 0
KSP2 041305Z 02001KT 27/16 A3007 RMK A01 T02710155  RH  049%=      5-min Rain = 0
KSP2 041306Z 04001KT 27/16 A3007 RMK A01 T02720155  RH  049%=      5-min Rain = 0
KSP2 041307Z 04001KT 27/16 A3007 RMK A01 T02730156  RH  049%=      5-min Rain = 0
KSP2 041308Z 03002KT 28/16 A3007 RMK A01 T02750156  RH  048%=      5-min Rain = 0
KSP2 041309Z 35001KT 28/16 A3008 RMK A01 T02760157  RH  048%=      5-min Rain = 0
KSP2 041310Z 34003KT 28/16 A3008 RMK A01 T02770156  RH  047%=      5-min Rain = 0
KSP2 041311Z 35002KT 28/16 A3008 RMK A01 T02780156  RH  047%=      5-min Rain = 0
KSP2 041312Z 33003KT 28/16 A3008 RMK A01 T02790157  RH  047%=      5-min Rain = 0
KSP2 041313Z 34004KT 28/16 A3008 RMK A01 T02800156  RH  047%=      5-min Rain = 0
KSP2 041314Z 34004KT 28/15 A3008 RMK A01 T02780154  RH  047%=      5-min Rain = 0
KSP2 041315Z 32004KT 28/16 A3008 RMK A01 T02780155  RH  047%=      5-min Rain = 0
KSP2 041316Z 33004KT 28/16 A3008 RMK A01 T02770155  RH  047%=      5-min Rain = 0
KSP2 041317Z 34004KT 28/15 A3008 RMK A01 T02780154  RH  047%=      5-min Rain = 0
KSP2 041318Z 33004KT 28/16 A3008 RMK A01 T02780157  RH  048%=      5-min Rain = 0
KSP2 041319Z 33003KT 28/16 A3007 RMK A01 T02780158  RH  048%=      5-min Rain = 0
KSP2 041320Z 32003KT 28/16 A3007 RMK A01 T02780158  RH  048%=      5-min Rain = 0
KSP2 041321Z 32003KT 28/16 A3007 RMK A01 T02780157  RH  048%=      5-min Rain = 0
KSP2 041322Z 31003KT 28/16 A3008 RMK A01 T02770159  RH  049%=      5-min Rain = 0
KSP2 041323Z 33004KT 28/16 A3008 RMK A01 T02770160  RH  049%=      5-min Rain = 0
KSP2 041324Z 34003KT 28/16 A3008 RMK A01 T02780156  RH  047%=      5-min Rain = 0
KSP2 041325Z 34004KT 28/16 A3008 RMK A01 T02780155  RH  047%=      5-min Rain = 0
KSP2 041326Z 34005KT 28/16 A3008 RMK A01 T02800155  RH  047%=      5-min Rain = 0
KSP2 041327Z 33004KT 28/16 A3008 RMK A01 T02800158  RH  047%=      5-min Rain = 0
KSP2 041328Z 32005KT 28/16 A3008 RMK A01 T02820158  RH  047%=      5-min Rain = 0
KSP2 041329Z 33006KT 28/16 A3008 RMK A01 T02840157  RH  046%=      5-min Rain = 0
KSP2 041330Z 33005KT 28/16 A3008 RMK A01 T02830155  RH  046%=      5-min Rain = 0
KSP2 041331Z 33005KT 28/16 A3008 RMK A01 T02830156  RH  046%=      5-min Rain = 0
KSP2 041332Z 32005KT 28/16 A3008 RMK A01 T02820158  RH  047%=      5-min Rain = 0
KSP2 041333Z 32005KT 28/16 A3008 RMK A01 T02840158  RH  046%=      5-min Rain = 0
KSP2 041334Z 32007KT 28/16 A3008 RMK A01 T02840158  RH  046%=      5-min Rain = 0
KSP2 041335Z 32007KT 28/16 A3008 RMK A01 T02840157  RH  046%=      5-min Rain = 0
KSP2 041336Z 32007KT 28/16 A3008 RMK A01 T02830156  RH  046%=      5-min Rain = 0
KSP2 041337Z 31008KT 28/16 A3008 RMK A01 T02830157  RH  047%=      5-min Rain = 0
KSP2 041338Z 32008KT 28/16 A3008 RMK A01 T02820158  RH  047%=      5-min Rain = 0
KSP2 041339Z 31006KT 28/16 A3008 RMK A01 T02820159  RH  047%=      5-min Rain = 0
KSP2 041340Z 30009KT 28/16 A3008 RMK A01 T02840161  RH  047%=      5-min Rain = 0
KSP2 041341Z 30008KT 29/16 A3008 RMK A01 T02850161  RH  047%=      5-min Rain = 0
KSP2 041342Z 30007KT 28/16 A3008 RMK A01 T02830160  RH  047%=      5-min Rain = 0
KSP2 041343Z 30007KT 28/16 A3008 RMK A01 T02810161  RH  048%=      5-min Rain = 0
KSP2 041344Z 30007KT 28/16 A3008 RMK A01 T02810161  RH  048%=      5-min Rain = 0
KSP2 041345Z 28005KT 28/16 A3007 RMK A01 T02800161  RH  048%=      5-min Rain = 0
KSP2 041346Z 30006KT 28/16 A3007 RMK A01 T02810163  RH  049%=      5-min Rain = 0
KSP2 041347Z 29005KT 28/16 A3007 RMK A01 T02840164  RH  048%=      5-min Rain = 0
KSP2 041348Z 30006KT 28/16 A3007 RMK A01 T02840162  RH  048%=      5-min Rain = 0
KSP2 041349Z 31005KT 28/16 A3007 RMK A01 T02840161  RH  047%=      5-min Rain = 0
KSP2 041350Z 29005KT 28/16 A3007 RMK A01 T02830162  RH  048%=      5-min Rain = 0
KSP2 041351Z 30006KT 28/16 A3007 RMK A01 T02830163  RH  048%=      5-min Rain = 0
KSP2 041352Z 30007KT 28/16 A3007 RMK A01 T02840161  RH  047%=      5-min Rain = 0
KSP2 041353Z 30006KT 28/16 A3007 RMK A01 T02840160  RH  047%=      5-min Rain = 0
KSP2 041354Z 30007KT 28/16 A3007 RMK A01 T02820161  RH  048%=      5-min Rain = 0
KSP2 041355Z 28005KT 28/16 A3007 RMK A01 T02810162  RH  048%=      5-min Rain = 0
KSP2 041356Z 32004KT 28/16 A3007 RMK A01 T02820162  RH  048%=      5-min Rain = 0
KSP2 041357Z 33004KT 29/16 A3007 RMK A01 T02850159  RH  047%=      5-min Rain = 0
KSP2 041358Z 32004KT 29/16 A3007 RMK A01 T02860160  RH  046%=      5-min Rain = 0
KSP2 041359Z 33006KT 29/16 A3007 RMK A01 T02880159  RH  046%=      5-min Rain = 0
KSP2 041400Z 33005KT 29/16 A3007 RMK A01 T02870158  RH  046%=      5-min Rain = 0
KSP2 041401Z 33005KT 29/16 A3007 RMK A01 T02850158  RH  046%=      5-min Rain = 0
KSP2 041402Z 32004KT 29/16 A3007 RMK A01 T02860155  RH  045%=      5-min Rain = 0
KSP2 041403Z 32003KT 29/16 A3007 RMK A01 T02860159  RH  046%=      5-min Rain = 0
KSP2 041404Z 00005KT 29/16 A3007 RMK A01 T02870157  RH  045%=      5-min Rain = 0
KSP2 041405Z 01004KT 29/16 A3007 RMK A01 T02880155  RH  044%=      5-min Rain = 0
KSP2 041406Z 36005KT 29/16 A3007 RMK A01 T02880155  RH  044%=      5-min Rain = 0
KSP2 041407Z 34003KT 29/15 A3007 RMK A01 T02890154  RH  044%=      5-min Rain = 0
KSP2 041408Z 33003KT 29/15 A3007 RMK A01 T02900152  RH  043%=      5-min Rain = 0
KSP2 041409Z 33004KT 29/16 A3008 RMK A01 T02900155  RH  044%=      5-min Rain = 0
KSP2 041410Z 35004KT 29/16 A3008 RMK A01 T02900157  RH  044%=      5-min Rain = 0
KSP2 041411Z 36004KT 29/15 A3008 RMK A01 T02900154  RH  043%=      5-min Rain = 0
KSP2 041412Z 01005KT 29/16 A3008 RMK A01 T02900156  RH  044%=      5-min Rain = 0
KSP2 041413Z 02005KT 29/16 A3008 RMK A01 T02890157  RH  045%=      5-min Rain = 0
KSP2 041414Z 02005KT 29/16 A3008 RMK A01 T02870157  RH  045%=      5-min Rain = 0
KSP2 041415Z 00006KT 29/16 A3008 RMK A01 T02870155  RH  045%=      5-min Rain = 0
KSP2 041416Z 01006KT 29/15 A3008 RMK A01 T02870153  RH  044%=      5-min Rain = 0
KSP2 041417Z 01005KT 29/15 A3008 RMK A01 T02870150  RH  043%=      5-min Rain = 0
KSP2 041418Z 00004KT 29/15 A3008 RMK A01 T02890149  RH  043%=      5-min Rain = 0
KSP2 041419Z 35004KT 29/15 A3008 RMK A01 T02900146  RH  041%=      5-min Rain = 0
KSP2 041420Z 00004KT 29/15 A3008 RMK A01 T02900146  RH  041%=      5-min Rain = 0
KSP2 041421Z 02004KT 29/15 A3008 RMK A01 T02920153  RH  043%=      5-min Rain = 0
KSP2 041422Z 34005KT 29/16 A3008 RMK A01 T02940156  RH  043%=      5-min Rain = 0
KSP2 041423Z 34005KT 30/16 A3008 RMK A01 T02970157  RH  043%=      5-min Rain = 0
KSP2 041424Z 33005KT 30/16 A3008 RMK A01 T02960157  RH  043%=      5-min Rain = 0
KSP2 041425Z 34006KT 30/16 A3007 RMK A01 T02950158  RH  044%=      5-min Rain = 0
KSP2 041426Z 34006KT 30/16 A3007 RMK A01 T02970159  RH  043%=      5-min Rain = 0
KSP2 041427Z 34004KT 30/16 A3007 RMK A01 T02980158  RH  043%=      5-min Rain = 0
KSP2 041428Z 35003KT 30/16 A3007 RMK A01 T02980157  RH  043%=      5-min Rain = 0
KSP2 041429Z 34003KT 30/16 A3007 RMK A01 T02990155  RH  042%=      5-min Rain = 0
KSP2 041430Z 33003KT 30/16 A3007 RMK A01 T02990157  RH  042%=      5-min Rain = 0
KSP2 041431Z 35005KT 30/16 A3007 RMK A01 T03000155  RH  041%=      5-min Rain = 0
KSP2 041432Z 35005KT 30/15 A3007 RMK A01 T03010151  RH  040%=      5-min Rain = 0
KSP2 041433Z 35004KT 30/15 A3007 RMK A01 T03010150  RH  040%=      5-min Rain = 0
KSP2 041434Z 00003KT 30/15 A3007 RMK A01 T03000152  RH  041%=      5-min Rain = 0
KSP2 041435Z 33001KT 30/15 A3007 RMK A01 T02990153  RH  041%=      5-min Rain = 0
KSP2 041436Z 32002KT 30/16 A3007 RMK A01 T02980155  RH  042%=      5-min Rain = 0
KSP2 041437Z 01005KT 30/15 A3007 RMK A01 T03010154  RH  041%=      5-min Rain = 0
KSP2 041438Z 02006KT 31/15 A3007 RMK A01 T03050152  RH  040%=      5-min Rain = 0
KSP2 041439Z 01005KT 31/15 A3007 RMK A01 T03060154  RH  040%=      5-min Rain = 0
KSP2 041440Z 04005KT 30/15 A3007 RMK A01 T03040154  RH  040%=      5-min Rain = 0
KSP2 041441Z 04005KT 30/16 A3007 RMK A01 T03040155  RH  040%=      5-min Rain = 0
KSP2 041442Z 05003KT 31/15 A3007 RMK A01 T03070154  RH  040%=      5-min Rain = 0
KSP2 041443Z 06003KT 31/15 A3007 RMK A01 T03070153  RH  039%=      5-min Rain = 0
KSP2 041444Z 01005KT 31/15 A3007 RMK A01 T03050154  RH  040%=      5-min Rain = 0
KSP2 041445Z 04005KT 31/15 A3007 RMK A01 T03060154  RH  040%=      5-min Rain = 0
KSP2 041446Z 03006KT 31/15 A3007 RMK A01 T03070153  RH  039%=      5-min Rain = 0
KSP2 041447Z 04006KT 31/15 A3007 RMK A01 T03080153  RH  039%=      5-min Rain = 0
KSP2 041448Z 05005KT 31/15 A3007 RMK A01 T03070153  RH  039%=      5-min Rain = 0
KSP2 041449Z 04005KT 31/15 A3007 RMK A01 T03070152  RH  039%=      5-min Rain = 0
KSP2 041450Z 06003KT 31/15 A3007 RMK A01 T03070150  RH  039%=      5-min Rain = 0
KSP2 041451Z 09001KT 31/15 A3007 RMK A01 T03060151  RH  039%=      5-min Rain = 0
KSP2 041452Z 05003KT 31/15 A3007 RMK A01 T03060151  RH  039%=      5-min Rain = 0
KSP2 041453Z 04005KT 31/15 A3007 RMK A01 T03090148  RH  038%=      5-min Rain = 0
KSP2 041454Z 02004KT 31/15 A3007 RMK A01 T03090147  RH  037%=      5-min Rain = 0
KSP2 041455Z 01005KT 31/15 A3007 RMK A01 T03090146  RH  037%=      5-min Rain = 0
KSP2 041456Z 00005KT 31/15 A3007 RMK A01 T03100145  RH  037%=      5-min Rain = 0
KSP2 041457Z 01004KT 31/15 A3007 RMK A01 T03110145  RH  036%=      5-min Rain = 0
KSP2 041458Z 00003KT 31/15 A3007 RMK A01 T03120146  RH  037%=      5-min Rain = 0
KSP2 041459Z 35004KT 31/15 A3007 RMK A01 T03120147  RH  037%=      5-min Rain = 0
KSP2 041500Z 02006KT 31/15 A3007 RMK A01 T03110147  RH  037%=      5-min Rain = 0
KSP2 041501Z 04004KT 31/15 A3007 RMK A01 T03090147  RH  037%=      5-min Rain = 0
KSP2 041502Z 01005KT 31/15 A3007 RMK A01 T03090151  RH  038%=      5-min Rain = 0
KSP2 041503Z 00006KT 31/15 A3007 RMK A01 T03120150  RH  038%=      5-min Rain = 0
KSP2 041504Z 00004KT 31/15 A3007 RMK A01 T03130149  RH  037%=      5-min Rain = 0
KSP2 041505Z 01005KT 31/15 A3007 RMK A01 T03140148  RH  037%=      5-min Rain = 0
KSP2 041506Z 01005KT 32/15 A3007 RMK A01 T03150149  RH  037%=      5-min Rain = 0
KSP2 041507Z 04004KT 31/15 A3007 RMK A01 T03130152  RH  038%=      5-min Rain = 0
KSP2 041508Z 03006KT 31/15 A3007 RMK A01 T03130150  RH  037%=      5-min Rain = 0
KSP2 041509Z 01004KT 31/15 A3007 RMK A01 T03140149  RH  037%=      5-min Rain = 0
KSP2 041510Z 35005KT 31/15 A3007 RMK A01 T03130151  RH  037%=      5-min Rain = 0
KSP2 041511Z 36005KT 31/15 A3007 RMK A01 T03140150  RH  037%=      5-min Rain = 0
KSP2 041512Z 35005KT 32/15 A3007 RMK A01 T03170151  RH  037%=      5-min Rain = 0
KSP2 041513Z 35006KT 32/15 A3007 RMK A01 T03190148  RH  036%=      5-min Rain = 0
KSP2 041514Z 03005KT 32/15 A3007 RMK A01 T03180148  RH  036%=      5-min Rain = 0
KSP2 041515Z 02005KT 32/15 A3007 RMK A01 T03170148  RH  036%=      5-min Rain = 0
KSP2 041516Z 04008KT 32/16 A3007 RMK A01 T03190155  RH  037%=      5-min Rain = 0
KSP2 041517Z 04009KT 32/17 A3007 RMK A01 T03200165  RH  039%=      5-min Rain = 0
KSP2 041518Z 04010KT 32/17 A3007 RMK A01 T03190169  RH  041%=      5-min Rain = 0
KSP2 041519Z 05009KT 32/17 A3007 RMK A01 T03150169  RH  041%=      5-min Rain = 0
KSP2 041520Z 05008KT 31/17 A3007 RMK A01 T03140169  RH  042%=      5-min Rain = 0
KSP2 041521Z 04009KT 31/17 A3007 RMK A01 T03140168  RH  041%=      5-min Rain = 0
KSP2 041522Z 05007KT 31/17 A3007 RMK A01 T03130168  RH  042%=      5-min Rain = 0
KSP2 041523Z 04008KT 31/17 A3007 RMK A01 T03140167  RH  041%=      5-min Rain = 0
KSP2 041524Z 05007KT 32/17 A3007 RMK A01 T03150166  RH  041%=      5-min Rain = 0
KSP2 041525Z 05010KT 32/17 A3007 RMK A01 T03170167  RH  041%=      5-min Rain = 0
KSP2 041526Z 05010KT 32/17 A3007 RMK A01 T03170168  RH  041%=      5-min Rain = 0
KSP2 041527Z 05009KT 31/17 A3007 RMK A01 T03140167  RH  041%=      5-min Rain = 0
KSP2 041528Z 06010KT 31/17 A3008 RMK A01 T03130166  RH  041%=      5-min Rain = 0
KSP2 041529Z 03009KT 31/17 A3008 RMK A01 T03130166  RH  041%=      5-min Rain = 0
KSP2 041530Z 05007KT 31/17 A3008 RMK A01 T03140167  RH  041%=      5-min Rain = 0
KSP2 041531Z 04009KT 31/17 A3008 RMK A01 T03140167  RH  041%=      5-min Rain = 0
KSP2 041532Z 05009KT 31/17 A3008 RMK A01 T03140166  RH  041%=      5-min Rain = 0
KSP2 041533Z 06008KT 31/17 A3008 RMK A01 T03120166  RH  041%=      5-min Rain = 0
KSP2 041534Z 07011KT 31/17 A3008 RMK A01 T03120165  RH  041%=      5-min Rain = 0
KSP2 041535Z 06011KT 31/17 A3008 RMK A01 T03100165  RH  042%=      5-min Rain = 0
KSP2 041536Z 05009KT 31/16 A3008 RMK A01 T03090164  RH  042%=      5-min Rain = 0
KSP2 041537Z 05009KT 31/16 A3008 RMK A01 T03080164  RH  042%=      5-min Rain = 0
KSP2 041538Z 06009KT 31/16 A3008 RMK A01 T03100164  RH  042%=      5-min Rain = 0
KSP2 041539Z 06010KT 31/16 A3008 RMK A01 T03100164  RH  041%=      5-min Rain = 0
KSP2 041540Z 06009KT 31/16 A3008 RMK A01 T03100164  RH  041%=      5-min Rain = 0
KSP2 041541Z 06007KT 31/16 A3008 RMK A01 T03090163  RH  041%=      5-min Rain = 0
KSP2 041542Z 08008KT 31/16 A3008 RMK A01 T03080162  RH  041%=      5-min Rain = 0
KSP2 041543Z 07008KT 31/16 A3008 RMK A01 T03060162  RH  042%=      5-min Rain = 0
KSP2 041544Z 05009KT 31/16 A3008 RMK A01 T03070161  RH  041%=      5-min Rain = 0
KSP2 041545Z 04006KT 31/16 A3008 RMK A01 T03080161  RH  041%=      5-min Rain = 0
KSP2 041546Z 06008KT 31/16 A3008 RMK A01 T03080161  RH  041%=      5-min Rain = 0
KSP2 041547Z 05009KT 31/16 A3008 RMK A01 T03080161  RH  041%=      5-min Rain = 0
KSP2 041548Z 07006KT 31/16 A3008 RMK A01 T03080161  RH  041%=      5-min Rain = 0
KSP2 041549Z 05007KT 31/16 A3008 RMK A01 T03110162  RH  041%=      5-min Rain = 0
KSP2 041550Z 05007KT 31/16 A3008 RMK A01 T03130161  RH  040%=      5-min Rain = 0
KSP2 041551Z 06007KT 31/16 A3008 RMK A01 T03140160  RH  040%=      5-min Rain = 0
KSP2 041552Z 06005KT 31/16 A3008 RMK A01 T03140161  RH  040%=      5-min Rain = 0
KSP2 041553Z 06005KT 32/16 A3008 RMK A01 T03160160  RH  039%=      5-min Rain = 0
KSP2 041554Z 07004KT 32/16 A3008 RMK A01 T03160159  RH  039%=      5-min Rain = 0
KSP2 041555Z 07004KT 31/16 A3008 RMK A01 T03140159  RH  039%=      5-min Rain = 0
KSP2 041556Z 07008KT 31/16 A3008 RMK A01 T03130158  RH  039%=      5-min Rain = 0
KSP2 041557Z 06006KT 32/16 A3008 RMK A01 T03150159  RH  039%=      5-min Rain = 0
KSP2 041558Z 06006KT 32/16 A3008 RMK A01 T03170157  RH  038%=      5-min Rain = 0
KSP2 041559Z 07004KT 32/16 A3008 RMK A01 T03180157  RH  038%=      5-min Rain = 0
KSP2 041600Z 07009KT 32/16 A3008 RMK A01 T03180160  RH  039%=      5-min Rain = 0
KSP2 041601Z 07009KT 32/16 A3008 RMK A01 T03180160  RH  038%=      5-min Rain = 0
KSP2 041602Z 08006KT 32/16 A3008 RMK A01 T03170160  RH  039%=      5-min Rain = 0
KSP2 041603Z 08010KT 32/16 A3008 RMK A01 T03160159  RH  039%=      5-min Rain = 0
KSP2 041604Z 07008KT 31/16 A3008 RMK A01 T03140159  RH  039%=      5-min Rain = 0
KSP2 041605Z 05009KT 32/16 A3008 RMK A01 T03180158  RH  038%=      5-min Rain = 0
KSP2 041606Z 06009KT 32/16 A3008 RMK A01 T03210158  RH  037%=      5-min Rain = 0
KSP2 041607Z 07008KT 32/16 A3008 RMK A01 T03200157  RH  038%=      5-min Rain = 0
KSP2 041608Z 08005KT 32/16 A3008 RMK A01 T03160155  RH  038%=      5-min Rain = 0
KSP2 041609Z 06007KT 31/16 A3008 RMK A01 T03140156  RH  038%=      5-min Rain = 0
KSP2 041610Z 06008KT 32/16 A3008 RMK A01 T03170156  RH  038%=      5-min Rain = 0
KSP2 041611Z 05008KT 32/16 A3008 RMK A01 T03230157  RH  037%=      5-min Rain = 0
KSP2 041612Z 04007KT 32/16 A3008 RMK A01 T03240157  RH  037%=      5-min Rain = 0
KSP2 041613Z 03008KT 32/16 A3008 RMK A01 T03230155  RH  036%=      5-min Rain = 0
KSP2 041614Z 01006KT 32/15 A3008 RMK A01 T03220154  RH  036%=      5-min Rain = 0
KSP2 041615Z 03006KT 32/16 A3008 RMK A01 T03200155  RH  037%=      5-min Rain = 0
KSP2 041616Z 02005KT 32/16 A3008 RMK A01 T03230156  RH  036%=      5-min Rain = 0
KSP2 041617Z 00003KT 33/16 A3008 RMK A01 T03280155  RH  035%=      5-min Rain = 0
KSP2 041618Z 04002KT 33/16 A3008 RMK A01 T03310155  RH  035%=      5-min Rain = 0
KSP2 041619Z 02004KT 33/16 A3007 RMK A01 T03330156  RH  035%=      5-min Rain = 0
KSP2 041620Z 01005KT 33/15 A3007 RMK A01 T03330153  RH  034%=      5-min Rain = 0
KSP2 041621Z 02005KT 33/15 A3007 RMK A01 T03310152  RH  034%=      5-min Rain = 0
KSP2 041622Z 06006KT 33/16 A3007 RMK A01 T03270156  RH  036%=      5-min Rain = 0
KSP2 041623Z 05008KT 33/16 A3007 RMK A01 T03260157  RH  036%=      5-min Rain = 0
KSP2 041624Z 05010KT 33/16 A3008 RMK A01 T03260158  RH  036%=      5-min Rain = 0
KSP2 041625Z 04010KT 33/16 A3008 RMK A01 T03280156  RH  036%=      5-min Rain = 0
KSP2 041626Z 04005KT 33/16 A3008 RMK A01 T03270156  RH  036%=      5-min Rain = 0
KSP2 041627Z 04005KT 32/16 A3008 RMK A01 T03240156  RH  036%=      5-min Rain = 0
KSP2 041628Z 07007KT 32/16 A3008 RMK A01 T03220156  RH  037%=      5-min Rain = 0
KSP2 041629Z 07006KT 32/16 A3008 RMK A01 T03230156  RH  036%=      5-min Rain = 0
KSP2 041630Z 09004KT 33/16 A3008 RMK A01 T03250155  RH  036%=      5-min Rain = 0
KSP2 041631Z 12002KT 32/15 A3008 RMK A01 T03240154  RH  036%=      5-min Rain = 0
KSP2 041632Z 12003KT 32/15 A3008 RMK A01 T03220153  RH  036%=      5-min Rain = 0
KSP2 041633Z 13004KT 32/15 A3008 RMK A01 T03220154  RH  036%=      5-min Rain = 0
KSP2 041634Z 11003KT 32/15 A3008 RMK A01 T03240154  RH  036%=      5-min Rain = 0
KSP2 041635Z 07003KT 33/15 A3008 RMK A01 T03250153  RH  035%=      5-min Rain = 0
KSP2 041636Z 05005KT 33/15 A3008 RMK A01 T03270150  RH  034%=      5-min Rain = 0
KSP2 041637Z 05006KT 33/15 A3008 RMK A01 T03290151  RH  034%=      5-min Rain = 0
KSP2 041638Z 08006KT 33/15 A3008 RMK A01 T03270154  RH  035%=      5-min Rain = 0
KSP2 041639Z 08005KT 33/16 A3008 RMK A01 T03280155  RH  035%=      5-min Rain = 0
KSP2 041640Z 08005KT 33/16 A3008 RMK A01 T03300155  RH  035%=      5-min Rain = 0
KSP2 041641Z 03007KT 33/15 A3008 RMK A01 T03290154  RH  035%=      5-min Rain = 0
KSP2 041642Z 35006KT 33/15 A3008 RMK A01 T03300150  RH  034%=      5-min Rain = 0
KSP2 041643Z 36005KT 33/15 A3008 RMK A01 T03330149  RH  033%=      5-min Rain = 0
KSP2 041644Z 34007KT 34/15 A3008 RMK A01 T03350149  RH  033%=      5-min Rain = 0
KSP2 041645Z 32005KT 34/15 A3008 RMK A01 T03350148  RH  032%=      5-min Rain = 0
KSP2 041646Z 32004KT 33/15 A3008 RMK A01 T03310146  RH  033%=      5-min Rain = 0
KSP2 041647Z 02003KT 33/15 A3008 RMK A01 T03280146  RH  033%=      5-min Rain = 0
KSP2 041648Z 06007KT 33/15 A3008 RMK A01 T03290152  RH  035%=      5-min Rain = 0
KSP2 041649Z 04007KT 33/15 A3008 RMK A01 T03310154  RH  035%=      5-min Rain = 0
KSP2 041650Z 05002KT 33/15 A3008 RMK A01 T03320153  RH  034%=      5-min Rain = 0
KSP2 041651Z 09006KT 33/15 A3008 RMK A01 T03310154  RH  035%=      5-min Rain = 0
KSP2 041652Z 09008KT 33/15 A3008 RMK A01 T03320152  RH  034%=      5-min Rain = 0
KSP2 041653Z 09006KT 33/15 A3008 RMK A01 T03280149  RH  034%=      5-min Rain = 0
KSP2 041654Z 08007KT 33/15 A3008 RMK A01 T03290152  RH  035%=      5-min Rain = 0
KSP2 041655Z 10005KT 33/15 A3008 RMK A01 T03320150  RH  034%=      5-min Rain = 0
KSP2 041656Z 08004KT 33/15 A3008 RMK A01 T03320152  RH  034%=      5-min Rain = 0
KSP2 041657Z 09006KT 34/15 A3008 RMK A01 T03380150  RH  032%=      5-min Rain = 0
KSP2 041658Z 08004KT 34/15 A3008 RMK A01 T03390148  RH  032%=      5-min Rain = 0
KSP2 041659Z 09001KT 34/15 A3008 RMK A01 T03350147  RH  032%=      5-min Rain = 0
KSP2 041700Z 32001KT 33/15 A3008 RMK A01 T03330149  RH  033%=      5-min Rain = 0
KSP2 041701Z 32003KT 33/15 A3008 RMK A01 T03340149  RH  033%=      5-min Rain = 0
KSP2 041702Z 00004KT 34/15 A3008 RMK A01 T03350148  RH  033%=      5-min Rain = 0
KSP2 041703Z 36006KT 34/15 A3008 RMK A01 T03350147  RH  032%=      5-min Rain = 0
KSP2 041704Z 33003KT 34/15 A3008 RMK A01 T03350148  RH  032%=      5-min Rain = 0
KSP2 041705Z 02001KT 34/15 A3008 RMK A01 T03370147  RH  032%=      5-min Rain = 0
KSP2 041706Z 06005G10KT 34/15 A3007 RMK A01 T03390146  RH  031%=      5-min Rain = 0
KSP2 041707Z 36005KT 34/15 A3008 RMK A01 T03410148  RH  031%=      5-min Rain = 0
KSP2 041708Z 01008KT 34/15 A3008 RMK A01 T03420148  RH  031%=      5-min Rain = 0
KSP2 041709Z 35008KT 34/15 A3008 RMK A01 T03440147  RH  031%=      5-min Rain = 0
KSP2 041710Z 01006KT 34/14 A3008 RMK A01 T03410144  RH  031%=      5-min Rain = 0
KSP2 041711Z 04005KT 34/14 A3008 RMK A01 T03390144  RH  031%=      5-min Rain = 0
KSP2 041712Z 35004KT 34/15 A3008 RMK A01 T03380146  RH  032%=      5-min Rain = 0
KSP2 041713Z 35004KT 34/14 A3008 RMK A01 T03420144  RH  031%=      5-min Rain = 0
KSP2 041714Z 01004KT 34/15 A3008 RMK A01 T03410145  RH  031%=      5-min Rain = 0
KSP2 041715Z 01005KT 34/15 A3008 RMK A01 T03380148  RH  032%=      5-min Rain = 0
KSP2 041716Z 05006KT 34/15 A3008 RMK A01 T03400149  RH  032%=      5-min Rain = 0
KSP2 041717Z 06008KT 34/15 A3008 RMK A01 T03410150  RH  032%=      5-min Rain = 0
KSP2 041718Z 06004KT 34/15 A3008 RMK A01 T03390149  RH  032%=      5-min Rain = 0
KSP2 041719Z 07002KT 34/15 A3008 RMK A01 T03360149  RH  032%=      5-min Rain = 0
KSP2 041720Z 01001KT 34/15 A3008 RMK A01 T03360149  RH  032%=      5-min Rain = 0
KSP2 041721Z 05001KT 34/15 A3008 RMK A01 T03380149  RH  032%=      5-min Rain = 0
KSP2 041722Z 02006KT 34/15 A3008 RMK A01 T03400149  RH  032%=      5-min Rain = 0
KSP2 041723Z 01007KT 34/15 A3008 RMK A01 T03410149  RH  032%=      5-min Rain = 0
KSP2 041724Z 04006KT 34/15 A3008 RMK A01 T03430149  RH  031%=      5-min Rain = 0
KSP2 041725Z 05005KT 34/15 A3008 RMK A01 T03440148  RH  031%=      5-min Rain = 0
KSP2 041726Z 10003KT 34/15 A3008 RMK A01 T03380146  RH  031%=      5-min Rain = 0
KSP2 041727Z 08004KT 34/15 A3008 RMK A01 T03360147  RH  032%=      5-min Rain = 0
KSP2 041728Z 06006KT 34/15 A3008 RMK A01 T03390146  RH  031%=      5-min Rain = 0
KSP2 041729Z 08004KT 34/15 A3008 RMK A01 T03400145  RH  031%=      5-min Rain = 0
KSP2 041730Z 11003KT 34/15 A3008 RMK A01 T03390145  RH  031%=      5-min Rain = 0
KSP2 041731Z 09007KT 34/14 A3008 RMK A01 T03380144  RH  031%=      5-min Rain = 0
KSP2 041732Z 10008KT 34/14 A3008 RMK A01 T03380144  RH  031%=      5-min Rain = 0
KSP2 041733Z 11006KT 34/14 A3008 RMK A01 T03420143  RH  030%=      5-min Rain = 0
KSP2 041734Z 11004KT 34/14 A3008 RMK A01 T03420143  RH  030%=      5-min Rain = 0
KSP2 041735Z 13003KT 34/14 A3008 RMK A01 T03410143  RH  030%=      5-min Rain = 0
KSP2 041736Z 13004KT 34/14 A3007 RMK A01 T03390143  RH  031%=      5-min Rain = 0
KSP2 041737Z 14004KT 34/14 A3007 RMK A01 T03380143  RH  031%=      5-min Rain = 0
KSP2 041738Z 16003KT 34/14 A3007 RMK A01 T03380144  RH  031%=      5-min Rain = 0
KSP2 041739Z 13002KT 34/14 A3007 RMK A01 T03370143  RH  031%=      5-min Rain = 0
KSP2 041740Z 09001KT 34/14 A3007 RMK A01 T03370142  RH  031%=      5-min Rain = 0
KSP2 041741Z 09002KT 34/14 A3007 RMK A01 T03360144  RH  031%=      5-min Rain = 0
KSP2 041742Z 07003KT 34/14 A3007 RMK A01 T03380144  RH  031%=      5-min Rain = 0
KSP2 041743Z 08006KT 34/15 A3007 RMK A01 T03430145  RH  031%=      5-min Rain = 0
KSP2 041744Z 09006KT 35/15 A3007 RMK A01 T03460145  RH  030%=      5-min Rain = 0
KSP2 041745Z 09006KT 35/15 A3007 RMK A01 T03480145  RH  030%=      5-min Rain = 0
KSP2 041746Z 08008KT 35/15 A3007 RMK A01 T03460146  RH  030%=      5-min Rain = 0
KSP2 041747Z 08006KT 35/15 A3007 RMK A01 T03490148  RH  030%=      5-min Rain = 0
KSP2 041748Z 10006KT 35/15 A3007 RMK A01 T03510147  RH  029%=      5-min Rain = 0
KSP2 041749Z 11002KT 35/15 A3007 RMK A01 T03470146  RH  030%=      5-min Rain = 0
KSP2 041750Z 09004KT 34/15 A3007 RMK A01 T03440146  RH  030%=      5-min Rain = 0
KSP2 041751Z 08004KT 34/15 A3007 RMK A01 T03440147  RH  031%=      5-min Rain = 0
KSP2 041752Z 07003KT 35/15 A3007 RMK A01 T03450147  RH  031%=      5-min Rain = 0
KSP2 041753Z 05004KT 34/15 A3007 RMK A01 T03440148  RH  031%=      5-min Rain = 0
KSP2 041754Z 03006KT 34/15 A3007 RMK A01 T03410146  RH  031%=      5-min Rain = 0
KSP2 041755Z 03007KT 34/15 A3007 RMK A01 T03380146  RH  031%=      5-min Rain = 0
KSP2 041756Z 07009KT 33/15 A3007 RMK A01 T03340146  RH  032%=      5-min Rain = 0
KSP2 041757Z 07009KT 33/15 A3007 RMK A01 T03340145  RH  032%=      5-min Rain = 0
KSP2 041758Z 05008KT 33/15 A3007 RMK A01 T03320145  RH  032%=      5-min Rain = 0
KSP2 041759Z 06009KT 33/15 A3007 RMK A01 T03300145  RH  033%=      5-min Rain = 0
KSP2 041800Z 06010KT 33/15 A3007 RMK A01 T03290145  RH  033%=      5-min Rain = 0
KSP2 041801Z 05008KT 33/15 A3007 RMK A01 T03290146  RH  033%=      5-min Rain = 0
KSP2 041802Z 35004KT 33/15 A3007 RMK A01 T03280145  RH  033%=      5-min Rain = 0
KSP2 041803Z 00005KT 33/15 A3007 RMK A01 T03280146  RH  033%=      5-min Rain = 0
KSP2 041804Z 05006KT 33/15 A3007 RMK A01 T03290150  RH  034%=      5-min Rain = 0
KSP2 041805Z 03008KT 34/15 A3007 RMK A01 T03360151  RH  033%=      5-min Rain = 0
KSP2 041806Z 03006KT 34/15 A3007 RMK A01 T03390149  RH  032%=      5-min Rain = 0
KSP2 041807Z 02005KT 34/15 A3007 RMK A01 T03370148  RH  032%=      5-min Rain = 0
KSP2 041808Z 07008KT 34/15 A3007 RMK A01 T03360151  RH  033%=      5-min Rain = 0
KSP2 041809Z 07011KT 34/15 A3007 RMK A01 T03380149  RH  032%=      5-min Rain = 0
KSP2 041810Z 08012KT 34/15 A3007 RMK A01 T03390151  RH  032%=      5-min Rain = 0
KSP2 041811Z 08011KT 34/15 A3007 RMK A01 T03410150  RH  032%=      5-min Rain = 0
KSP2 041812Z 09010KT 34/15 A3007 RMK A01 T03440151  RH  031%=      5-min Rain = 0
KSP2 041813Z 08008KT 35/15 A3007 RMK A01 T03480151  RH  031%=      5-min Rain = 0
KSP2 041814Z 08008KT 35/15 A3007 RMK A01 T03460149  RH  031%=      5-min Rain = 0
KSP2 041815Z 08009KT 34/15 A3007 RMK A01 T03420148  RH  031%=      5-min Rain = 0
KSP2 041816Z 04008KT 34/15 A3007 RMK A01 T03400149  RH  032%=      5-min Rain = 0
KSP2 041817Z 06008KT 35/15 A3007 RMK A01 T03460150  RH  031%=      5-min Rain = 0
KSP2 041818Z 06009KT 35/15 A3007 RMK A01 T03470149  RH  031%=      5-min Rain = 0
KSP2 041819Z 04007KT 35/15 A3007 RMK A01 T03470150  RH  031%=      5-min Rain = 0
KSP2 041820Z 05007KT 35/15 A3006 RMK A01 T03490149  RH  030%=      5-min Rain = 0
KSP2 041821Z 03007KT 35/15 A3006 RMK A01 T03520150  RH  030%=      5-min Rain = 0
KSP2 041822Z 01006KT 35/15 A3006 RMK A01 T03530149  RH  030%=      5-min Rain = 0
KSP2 041823Z 01006KT 35/15 A3006 RMK A01 T03500149  RH  030%=      5-min Rain = 0
KSP2 041824Z 01005KT 35/15 A3006 RMK A01 T03470148  RH  030%=      5-min Rain = 0
KSP2 041825Z 02005KT 34/15 A3006 RMK A01 T03430148  RH  031%=      5-min Rain = 0
KSP2 041826Z 04008KT 34/15 A3006 RMK A01 T03420148  RH  031%=      5-min Rain = 0
KSP2 041827Z 05009KT 34/15 A3006 RMK A01 T03400148  RH  032%=      5-min Rain = 0
KSP2 041828Z 06005KT 34/15 A3006 RMK A01 T03350147  RH  032%=      5-min Rain = 0
KSP2 041829Z 06008KT 33/15 A3006 RMK A01 T03330149  RH  033%=      5-min Rain = 0
KSP2 041830Z 04008KT 34/15 A3006 RMK A01 T03360150  RH  033%=      5-min Rain = 0
KSP2 041831Z 05008KT 34/15 A3006 RMK A01 T03420150  RH  032%=      5-min Rain = 0
KSP2 041832Z 03004KT 34/15 A3006 RMK A01 T03430150  RH  031%=      5-min Rain = 0
KSP2 041833Z 02005KT 34/15 A3006 RMK A01 T03440149  RH  031%=      5-min Rain = 0
KSP2 041834Z 01005KT 35/15 A3006 RMK A01 T03450149  RH  031%=      5-min Rain = 0
KSP2 041835Z 03006KT 34/15 A3006 RMK A01 T03440149  RH  031%=      5-min Rain = 0
KSP2 041836Z 02008KT 35/15 A3006 RMK A01 T03460149  RH  031%=      5-min Rain = 0
KSP2 041837Z 01008KT 35/15 A3006 RMK A01 T03470148  RH  030%=      5-min Rain = 0
KSP2 041838Z 01007KT 35/15 A3006 RMK A01 T03460148  RH  031%=      5-min Rain = 0
KSP2 041839Z 02006KT 35/15 A3006 RMK A01 T03450148  RH  031%=      5-min Rain = 0
KSP2 041840Z 03006G11KT 35/15 A3006 RMK A01 T03480148  RH  030%=      5-min Rain = 0
KSP2 041841Z 02001KT 35/15 A3006 RMK A01 T03460148  RH  031%=      5-min Rain = 0
KSP2 041842Z 36003KT 34/15 A3006 RMK A01 T03440148  RH  031%=      5-min Rain = 0
KSP2 041843Z 05004KT 35/15 A3006 RMK A01 T03470149  RH  031%=      5-min Rain = 0
KSP2 041844Z 04006G12KT 35/15 A3006 RMK A01 T03500149  RH  030%=      5-min Rain = 0
KSP2 041845Z 05009KT 35/15 A3006 RMK A01 T03500150  RH  030%=      5-min Rain = 0
KSP2 041846Z 04011KT 35/15 A3006 RMK A01 T03520149  RH  030%=      5-min Rain = 0
KSP2 041847Z 03007KT 35/15 A3006 RMK A01 T03530148  RH  030%=      5-min Rain = 0
KSP2 041848Z 07007KT 35/15 A3006 RMK A01 T03510150  RH  030%=      5-min Rain = 0
KSP2 041849Z 07003KT 35/15 A3006 RMK A01 T03520147  RH  029%=      5-min Rain = 0
KSP2 041850Z 01003KT 35/15 A3006 RMK A01 T03490147  RH  030%=      5-min Rain = 0
KSP2 041851Z 06003G8KT 35/15 A3006 RMK A01 T03480149  RH  030%=      5-min Rain = 0
KSP2 041852Z 09009G14KT 35/15 A3006 RMK A01 T03520149  RH  030%=      5-min Rain = 0
KSP2 041853Z 10009G14KT 35/15 A3006 RMK A01 T03540148  RH  029%=      5-min Rain = 0
KSP2 041854Z 10004KT 35/15 A3006 RMK A01 T03510147  RH  030%=      5-min Rain = 0
KSP2 041855Z 20002KT 35/15 A3006 RMK A01 T03460146  RH  030%=      5-min Rain = 0
KSP2 041856Z 06008KT 35/15 A3006 RMK A01 T03460148  RH  031%=      5-min Rain = 0
KSP2 041857Z 03004KT 35/15 A3006 RMK A01 T03490146  RH  030%=      5-min Rain = 0
KSP2 041858Z 30002KT 34/15 A3005 RMK A01 T03440146  RH  030%=      5-min Rain = 0
KSP2 041859Z 28003KT 34/14 A3005 RMK A01 T03410144  RH  031%=      5-min Rain = 0
KSP2 041900Z 02005G13KT 34/15 A3005 RMK A01 T03400146  RH  031%=      5-min Rain = 0
KSP2 041901Z 05009KT 35/15 A3005 RMK A01 T03460148  RH  031%=      5-min Rain = 0
KSP2 041902Z 04007KT 35/15 A3005 RMK A01 T03470147  RH  030%=      5-min Rain = 0
KSP2 041903Z 03007KT 35/15 A3005 RMK A01 T03470148  RH  030%=      5-min Rain = 0
KSP2 041904Z 01004KT 35/15 A3005 RMK A01 T03470146  RH  030%=      5-min Rain = 0
KSP2 041905Z 36003KT 34/15 A3005 RMK A01 T03440145  RH  030%=      5-min Rain = 0
KSP2 041906Z 06002KT 34/15 A3005 RMK A01 T03410145  RH  031%=      5-min Rain = 0
KSP2 041907Z 09005KT 34/15 A3005 RMK A01 T03400146  RH  031%=      5-min Rain = 0
KSP2 041908Z 10007KT 34/15 A3005 RMK A01 T03400146  RH  031%=      5-min Rain = 0
KSP2 041909Z 11005KT 34/15 A3005 RMK A01 T03410145  RH  031%=      5-min Rain = 0
KSP2 041910Z 14004KT 34/15 A3005 RMK A01 T03400146  RH  031%=      5-min Rain = 0
KSP2 041911Z 11003KT 34/15 A3005 RMK A01 T03400145  RH  031%=      5-min Rain = 0
KSP2 041912Z 14006KT 34/15 A3005 RMK A01 T03410145  RH  031%=      5-min Rain = 0
KSP2 041913Z 13005KT 34/15 A3005 RMK A01 T03410145  RH  031%=      5-min Rain = 0
KSP2 041914Z 15007KT 34/14 A3005 RMK A01 T03410144  RH  031%=      5-min Rain = 0
KSP2 041915Z 14004KT 34/15 A3005 RMK A01 T03420145  RH  031%=      5-min Rain = 0
KSP2 041916Z 12003KT 34/14 A3004 RMK A01 T03430144  RH  030%=      5-min Rain = 0
KSP2 041917Z 14005KT 34/15 A3004 RMK A01 T03430146  RH  031%=      5-min Rain = 0
KSP2 041918Z 15007KT 35/15 A3004 RMK A01 T03460146  RH  030%=      5-min Rain = 0
KSP2 041919Z 16008KT 35/15 A3004 RMK A01 T03490147  RH  030%=      5-min Rain = 0
KSP2 041920Z 16009KT 35/15 A3004 RMK A01 T03480146  RH  030%=      5-min Rain = 0
KSP2 041921Z 18006KT 35/14 A3004 RMK A01 T03450141  RH  029%=      5-min Rain = 0
KSP2 041922Z 19004KT 34/14 A3004 RMK A01 T03400141  RH  030%=      5-min Rain = 0
KSP2 041923Z 17004KT 34/14 A3004 RMK A01 T03390142  RH  031%=      5-min Rain = 0
KSP2 041924Z 15003KT 34/15 A3004 RMK A01 T03400145  RH  031%=      5-min Rain = 0
KSP2 041925Z 12005KT 34/14 A3004 RMK A01 T03430144  RH  030%=      5-min Rain = 0
KSP2 041926Z 12005KT 34/14 A3004 RMK A01 T03420144  RH  031%=      5-min Rain = 0
KSP2 041927Z 13005KT 34/14 A3004 RMK A01 T03380144  RH  031%=      5-min Rain = 0
KSP2 041928Z 14004KT 34/14 A3004 RMK A01 T03360144  RH  032%=      5-min Rain = 0
KSP2 041929Z 13003KT 34/15 A3004 RMK A01 T03360145  RH  032%=      5-min Rain = 0
KSP2 041930Z 12004KT 34/14 A3004 RMK A01 T03360144  RH  031%=      5-min Rain = 0
KSP2 041931Z 07003KT 34/15 A3004 RMK A01 T03380146  RH  032%=      5-min Rain = 0
KSP2 041932Z 04004KT 34/15 A3004 RMK A01 T03380146  RH  032%=      5-min Rain = 0
KSP2 041933Z 07004KT 34/15 A3004 RMK A01 T03390146  RH  031%=      5-min Rain = 0
KSP2 041934Z 07002KT 34/15 A3004 RMK A01 T03390146  RH  032%=      5-min Rain = 0
KSP2 041935Z 35002KT 34/15 A3004 RMK A01 T03380146  RH  032%=      5-min Rain = 0
KSP2 041936Z 01003KT 34/15 A3004 RMK A01 T03380147  RH  032%=      5-min Rain = 0
KSP2 041937Z 01006KT 34/15 A3004 RMK A01 T03380147  RH  032%=      5-min Rain = 0
KSP2 041938Z 36005KT 34/15 A3004 RMK A01 T03370146  RH  032%=      5-min Rain = 0
KSP2 041939Z 35005KT 34/15 A3004 RMK A01 T03360147  RH  032%=      5-min Rain = 0
KSP2 041940Z 00007KT 34/15 A3004 RMK A01 T03360147  RH  032%=      5-min Rain = 0
KSP2 041941Z 01006KT 34/15 A3004 RMK A01 T03360146  RH  032%=      5-min Rain = 0
KSP2 041942Z 36007KT 34/15 A3004 RMK A01 T03350147  RH  032%=      5-min Rain = 0
KSP2 041943Z 00007KT 34/15 A3004 RMK A01 T03360147  RH  032%=      5-min Rain = 0
KSP2 041944Z 00008KT 34/15 A3003 RMK A01 T03360147  RH  032%=      5-min Rain = 0
KSP2 041945Z 35009KT 34/15 A3003 RMK A01 T03370147  RH  032%=      5-min Rain = 0
KSP2 041946Z 36008KT 34/15 A3003 RMK A01 T03360147  RH  032%=      5-min Rain = 0
KSP2 041947Z 02006KT 34/15 A3003 RMK A01 T03350147  RH  032%=      5-min Rain = 0
KSP2 041948Z 03005KT 34/15 A3003 RMK A01 T03350147  RH  032%=      5-min Rain = 0
KSP2 041949Z 04006KT 34/15 A3003 RMK A01 T03370147  RH  032%=      5-min Rain = 0
KSP2 041950Z 03010KT 34/15 A3003 RMK A01 T03370148  RH  032%=      5-min Rain = 0
KSP2 041951Z 03013KT 34/15 A3003 RMK A01 T03350154  RH  034%=      5-min Rain = 0
KSP2 041952Z 02010KT 33/16 A3003 RMK A01 T03290155  RH  035%=      5-min Rain = 0
KSP2 041953Z 03011KT 33/16 A3003 RMK A01 T03280155  RH  035%=      5-min Rain = 0
KSP2 041954Z 02010KT 33/15 A3003 RMK A01 T03260153  RH  035%=      5-min Rain = 0
KSP2 041955Z 03012KT 32/15 A3003 RMK A01 T03240152  RH  035%=      5-min Rain = 0
KSP2 041956Z 03009KT 32/15 A3003 RMK A01 T03220152  RH  036%=      5-min Rain = 0
KSP2 041957Z 03010KT 32/15 A3003 RMK A01 T03220153  RH  036%=      5-min Rain = 0
KSP2 041958Z 02012KT 32/15 A3003 RMK A01 T03230153  RH  036%=      5-min Rain = 0
KSP2 041959Z 03012KT 32/15 A3003 RMK A01 T03230153  RH  036%=      5-min Rain = 0
KSP2 042000Z 04012KT 32/15 A3003 RMK A01 T03220154  RH  036%=      5-min Rain = 0
KSP2 042001Z 04011KT 32/15 A3003 RMK A01 T03200154  RH  037%=      5-min Rain = 0
KSP2 042002Z 05012KT 32/16 A3003 RMK A01 T03190155  RH  037%=      5-min Rain = 0
KSP2 042003Z 04009KT 32/16 A3003 RMK A01 T03190156  RH  037%=      5-min Rain = 0
KSP2 042004Z 04009KT 32/16 A3003 RMK A01 T03190156  RH  037%=      5-min Rain = 0
KSP2 042005Z 04010KT 32/15 A3003 RMK A01 T03190154  RH  037%=      5-min Rain = 0
KSP2 042006Z 03009KT 32/15 A3004 RMK A01 T03190153  RH  037%=      5-min Rain = 0
KSP2 042007Z 03010KT 32/15 A3004 RMK A01 T03190153  RH  037%=      5-min Rain = 0
KSP2 042008Z 03009KT 32/15 A3004 RMK A01 T03190153  RH  037%=      5-min Rain = 0
KSP2 042009Z 03008KT 32/15 A3004 RMK A01 T03180152  RH  037%=      5-min Rain = 0
KSP2 042010Z 03008KT 32/15 A3004 RMK A01 T03180153  RH  037%=      5-min Rain = 0
KSP2 042011Z 03008KT 32/15 A3004 RMK A01 T03190152  RH  036%=      5-min Rain = 0
KSP2 042012Z 04007KT 32/15 A3004 RMK A01 T03190151  RH  036%=      5-min Rain = 0
KSP2 042013Z 03007KT 32/15 A3004 RMK A01 T03190152  RH  036%=      5-min Rain = 0
KSP2 042014Z 03007KT 32/15 A3004 RMK A01 T03190151  RH  036%=      5-min Rain = 0
KSP2 042015Z 01005KT 32/15 A3004 RMK A01 T03190151  RH  036%=      5-min Rain = 0
KSP2 042016Z 34005KT 32/15 A3004 RMK A01 T03190152  RH  037%=      5-min Rain = 0
KSP2 042017Z 34005KT 32/15 A3005 RMK A01 T03190153  RH  037%=      5-min Rain = 0
KSP2 042018Z 33005KT 32/15 A3005 RMK A01 T03200153  RH  037%=      5-min Rain = 0
KSP2 042019Z 33002KT 32/15 A3005 RMK A01 T03200153  RH  037%=      5-min Rain = 0
KSP2 042020Z 26005G10KT 32/16 A3005 RMK A01 T03190156  RH  037%=      5-min Rain = 0
KSP2 042021Z 26006KT 32/16 A3006 RMK A01 T03150163  RH  040%=      5-min Rain = 0
KSP2 042022Z 23004KT 31/16 A3006 RMK A01 T03070163  RH  042%=      5-min Rain = 0
KSP2 042023Z 22004KT 30/17 A3006 RMK A01 T03010165  RH  044%=      5-min Rain = 0
KSP2 042024Z 22004G9KT 30/17 A3006 RMK A01 T02970169  RH  046%=      5-min Rain = 0
KSP2 042025Z 23008KT 29/17 A3006 RMK A01 T02930174  RH  049%=      5-min Rain = 0
KSP2 042026Z 24008KT 29/18 A3006 RMK A01 T02860179  RH  052%=      5-min Rain = 0.03
KSP2 042027Z 23011G16KT 28/17 A3006 RMK A01 T02790171  RH  052%=      5-min Rain = 0.01
KSP2 042028Z 24015G21KT 27/18 A3006 RMK A01 T02730179  RH  056%=      5-min Rain = 0.02
KSP2 042029Z 21015KT 27/18 A3006 RMK A01 T02650179  RH  059%=      5-min Rain = 0.01
KSP2 042030Z 20011G16KT 26/17 A3006 RMK A01 T02620174  RH  058%=      5-min Rain = 0.01
KSP2 042031Z 19008G13KT 26/18 A3006 RMK A01 T02620182  RH  061%=      5-min Rain = 0.02
KSP2 042032Z 18004KT 26/17 A3006 RMK A01 T02600169  RH  057%=      5-min Rain = 0.01
KSP2 042033Z 16008KT 26/19 A3005 RMK A01 T02610186  RH  063%=      5-min Rain = 0
KSP2 042034Z 15011KT 26/20 A3005 RMK A01 T02590195  RH  068%=      5-min Rain = 0
KSP2 042035Z 15012KT 26/19 A3005 RMK A01 T02550194  RH  069%=      5-min Rain = 0.01
KSP2 042036Z 15011KT 25/20 A3004 RMK A01 T02520195  RH  070%=      5-min Rain = 0.01
KSP2 042037Z 14013KT 25/19 A3004 RMK A01 T02500193  RH  071%=      5-min Rain = 0.01
KSP2 042038Z 13013KT 25/19 A3004 RMK A01 T02500193  RH  071%=      5-min Rain = 0.01
KSP2 042039Z 13013KT 25/19 A3004 RMK A01 T02500194  RH  071%=      5-min Rain = 0
KSP2 042040Z 12014KT 25/20 A3004 RMK A01 T02520195  RH  071%=      5-min Rain = 0
KSP2 042041Z 12014KT 25/19 A3004 RMK A01 T02530191  RH  069%=      5-min Rain = 0
KSP2 042042Z 12013KT 26/19 A3004 RMK A01 T02560186  RH  065%=      5-min Rain = 0
KSP2 042043Z 12011KT 26/20 A3004 RMK A01 T02570196  RH  069%=      5-min Rain = 0
KSP2 042044Z 12014KT 26/20 A3004 RMK A01 T02560198  RH  071%=      5-min Rain = 0
KSP2 042045Z 12013KT 26/19 A3004 RMK A01 T02580189  RH  066%=      5-min Rain = 0
KSP2 042046Z 12014KT 26/19 A3004 RMK A01 T02610194  RH  067%=      5-min Rain = 0
KSP2 042047Z 12012KT 26/19 A3004 RMK A01 T02610193  RH  066%=      5-min Rain = 0
KSP2 042048Z 12012KT 26/20 A3004 RMK A01 T02620202  RH  069%=      5-min Rain = 0
KSP2 042049Z 12010KT 26/21 A3004 RMK A01 T02630206  RH  071%=      5-min Rain = 0
KSP2 042050Z 12009KT 27/21 A3004 RMK A01 T02670208  RH  070%=      5-min Rain = 0
KSP2 042051Z 12012KT 27/22 A3004 RMK A01 T02720215  RH  071%=      5-min Rain = 0
KSP2 042052Z 12012KT 28/20 A3004 RMK A01 T02770202  RH  064%=      5-min Rain = 0
KSP2 042053Z 12009KT 28/22 A3004 RMK A01 T02810215  RH  067%=      5-min Rain = 0
KSP2 042054Z 12011KT 28/22 A3004 RMK A01 T02840215  RH  066%=      5-min Rain = 0
KSP2 042055Z 11010KT 29/22 A3004 RMK A01 T02870217  RH  066%=      5-min Rain = 0
KSP2 042056Z 12011KT 29/21 A3004 RMK A01 T02880211  RH  063%=      5-min Rain = 0
KSP2 042057Z 12011KT 29/21 A3004 RMK A01 T02880208  RH  062%=      5-min Rain = 0
KSP2 042058Z 11010KT 29/20 A3004 RMK A01 T02880202  RH  060%=      5-min Rain = 0
KSP2 042059Z 11009KT 29/21 A3004 RMK A01 T02870205  RH  061%=      5-min Rain = 0
KSP2 042100Z 11010KT 29/20 A3004 RMK A01 T02860202  RH  060%=      5-min Rain = 0
KSP2 042101Z 10008KT 29/20 A3004 RMK A01 T02860202  RH  061%=      5-min Rain = 0
KSP2 042102Z 11009KT 29/19 A3004 RMK A01 T02850193  RH  057%=      5-min Rain = 0
KSP2 042103Z 11009KT 29/20 A3004 RMK A01 T02850196  RH  058%=      5-min Rain = 0
KSP2 042104Z 10007KT 28/19 A3004 RMK A01 T02840194  RH  058%=      5-min Rain = 0
KSP2 042105Z 10007KT 28/20 A3004 RMK A01 T02830196  RH  059%=      5-min Rain = 0
KSP2 042106Z 09006KT 28/20 A3004 RMK A01 T02830196  RH  059%=      5-min Rain = 0
KSP2 042107Z 10007KT 28/20 A3004 RMK A01 T02820197  RH  060%=      5-min Rain = 0
KSP2 042108Z 09006KT 28/20 A3004 RMK A01 T02820195  RH  059%=      5-min Rain = 0
KSP2 042109Z 08006KT 28/20 A3004 RMK A01 T02820196  RH  060%=      5-min Rain = 0
KSP2 042110Z 07004KT 28/20 A3004 RMK A01 T02830197  RH  060%=      5-min Rain = 0
KSP2 042111Z 06004KT 28/20 A3004 RMK A01 T02830202  RH  062%=      5-min Rain = 0
KSP2 042112Z 06004KT 28/20 A3004 RMK A01 T02840198  RH  060%=      5-min Rain = 0
KSP2 042113Z 06005KT 29/20 A3004 RMK A01 T02850195  RH  058%=      5-min Rain = 0
KSP2 042114Z 07004KT 29/19 A3004 RMK A01 T02850192  RH  057%=      5-min Rain = 0
KSP2 042115Z 05005KT 29/19 A3004 RMK A01 T02860191  RH  057%=      5-min Rain = 0
KSP2 042116Z 06005KT 29/19 A3004 RMK A01 T02860189  RH  056%=      5-min Rain = 0
KSP2 042117Z 05005KT 29/19 A3004 RMK A01 T02860189  RH  056%=      5-min Rain = 0
KSP2 042118Z 05005KT 29/19 A3004 RMK A01 T02880189  RH  055%=      5-min Rain = 0
KSP2 042119Z 06005KT 29/19 A3003 RMK A01 T02900194  RH  056%=      5-min Rain = 0
KSP2 042120Z 05006KT 29/19 A3003 RMK A01 T02920191  RH  055%=      5-min Rain = 0
KSP2 042121Z 06004KT 29/19 A3003 RMK A01 T02930194  RH  055%=      5-min Rain = 0
KSP2 042122Z 08006KT 30/20 A3003 RMK A01 T02950204  RH  058%=      5-min Rain = 0
KSP2 042123Z 08005KT 30/19 A3003 RMK A01 T02970189  RH  052%=      5-min Rain = 0
KSP2 042124Z 07007KT 30/20 A3003 RMK A01 T02960195  RH  055%=      5-min Rain = 0
KSP2 042125Z 06005KT 30/19 A3003 RMK A01 T02960194  RH  054%=      5-min Rain = 0
KSP2 042126Z 05005KT 30/20 A3003 RMK A01 T02970196  RH  055%=      5-min Rain = 0
KSP2 042127Z 07007KT 30/20 A3003 RMK A01 T02990195  RH  054%=      5-min Rain = 0
KSP2 042128Z 09007KT 30/19 A3003 RMK A01 T03010191  RH  052%=      5-min Rain = 0
KSP2 042129Z 05005KT 30/19 A3003 RMK A01 T03010194  RH  053%=      5-min Rain = 0
KSP2 042130Z 06007KT 30/19 A3003 RMK A01 T03030189  RH  051%=      5-min Rain = 0
KSP2 042131Z 06007KT 30/18 A3003 RMK A01 T03040182  RH  048%=      5-min Rain = 0
KSP2 042132Z 07007KT 30/19 A3003 RMK A01 T03030189  RH  050%=      5-min Rain = 0
KSP2 042133Z 05007KT 30/18 A3003 RMK A01 T03040178  RH  047%=      5-min Rain = 0
KSP2 042134Z 07007KT 30/18 A3003 RMK A01 T03040184  RH  049%=      5-min Rain = 0
KSP2 042135Z 07006KT 30/18 A3003 RMK A01 T03030175  RH  046%=      5-min Rain = 0
KSP2 042136Z 08007KT 30/18 A3003 RMK A01 T03020179  RH  048%=      5-min Rain = 0
KSP2 042137Z 08007KT 30/18 A3003 RMK A01 T03020179  RH  048%=      5-min Rain = 0
KSP2 042138Z 08006KT 30/18 A3003 RMK A01 T03010179  RH  048%=      5-min Rain = 0
KSP2 042139Z 08009KT 30/18 A3003 RMK A01 T03010179  RH  048%=      5-min Rain = 0
KSP2 042140Z 07010KT 30/18 A3003 RMK A01 T03000184  RH  050%=      5-min Rain = 0
KSP2 042141Z 07012KT 30/18 A3003 RMK A01 T02990180  RH  049%=      5-min Rain = 0
KSP2 042142Z 07011KT 30/18 A3003 RMK A01 T02970177  RH  048%=      5-min Rain = 0
KSP2 042143Z 08009KT 30/18 A3003 RMK A01 T02960180  RH  050%=      5-min Rain = 0
KSP2 042144Z 08009KT 30/18 A3003 RMK A01 T02950175  RH  048%=      5-min Rain = 0
KSP2 042145Z 07008KT 30/18 A3003 RMK A01 T02950177  RH  049%=      5-min Rain = 0
KSP2 042146Z 08009KT 30/17 A3003 RMK A01 T02950172  RH  047%=      5-min Rain = 0
KSP2 042147Z 08007KT 30/17 A3002 RMK A01 T02960173  RH  048%=      5-min Rain = 0
KSP2 042148Z 08007KT 30/18 A3002 RMK A01 T02970176  RH  048%=      5-min Rain = 0
KSP2 042149Z 09009KT 30/17 A3002 RMK A01 T02980174  RH  047%=      5-min Rain = 0
KSP2 042150Z 08007KT 30/18 A3002 RMK A01 T02990176  RH  048%=      5-min Rain = 0
KSP2 042151Z 09008KT 30/18 A3002 RMK A01 T03000175  RH  047%=      5-min Rain = 0
KSP2 042152Z 09008KT 30/18 A3002 RMK A01 T03000176  RH  047%=      5-min Rain = 0
KSP2 042153Z 09009KT 30/17 A3002 RMK A01 T03010172  RH  046%=      5-min Rain = 0
KSP2 042154Z 09009KT 30/17 A3002 RMK A01 T03010171  RH  046%=      5-min Rain = 0
KSP2 042155Z 09011KT 30/17 A3002 RMK A01 T03010170  RH  045%=      5-min Rain = 0
KSP2 042156Z 10011KT 30/17 A3002 RMK A01 T03010170  RH  045%=      5-min Rain = 0
KSP2 042157Z 09012KT 30/17 A3002 RMK A01 T03000170  RH  046%=      5-min Rain = 0
KSP2 042158Z 10012KT 30/17 A3002 RMK A01 T03000168  RH  045%=      5-min Rain = 0
KSP2 042159Z 10011KT 30/17 A3002 RMK A01 T02990167  RH  045%=      5-min Rain = 0
KSP2 042200Z 10013KT 30/17 A3002 RMK A01 T02990166  RH  045%=      5-min Rain = 0
KSP2 042201Z 11010KT 30/17 A3001 RMK A01 T02990166  RH  045%=      5-min Rain = 0
KSP2 042202Z 10010KT 30/17 A3001 RMK A01 T03000168  RH  045%=      5-min Rain = 0
KSP2 042203Z 10009KT 30/17 A3001 RMK A01 T03010170  RH  045%=      5-min Rain = 0
KSP2 042204Z 10011KT 30/17 A3001 RMK A01 T03020169  RH  045%=      5-min Rain = 0
KSP2 042205Z 10010KT 30/17 A3001 RMK A01 T03030168  RH  044%=      5-min Rain = 0
KSP2 042206Z 11007KT 30/17 A3001 RMK A01 T03030173  RH  046%=      5-min Rain = 0
KSP2 042207Z 11009KT 30/17 A3001 RMK A01 T03030170  RH  045%=      5-min Rain = 0
KSP2 042208Z 11011KT 30/17 A3001 RMK A01 T03040166  RH  044%=      5-min Rain = 0
KSP2 042209Z 10011KT 31/16 A3001 RMK A01 T03050163  RH  043%=      5-min Rain = 0
KSP2 042210Z 10009KT 30/17 A3001 RMK A01 T03040165  RH  043%=      5-min Rain = 0
KSP2 042211Z 11007KT 30/17 A3001 RMK A01 T03040170  RH  045%=      5-min Rain = 0
KSP2 042212Z 11010KT 31/17 A3001 RMK A01 T03050166  RH  043%=      5-min Rain = 0
KSP2 042213Z 10010KT 31/17 A3001 RMK A01 T03060166  RH  043%=      5-min Rain = 0
KSP2 042214Z 10009KT 31/17 A30 RMK A01 T03060165  RH  043%=      5-min Rain = 0
KSP2 042215Z 09009KT 31/16 A30 RMK A01 T03070164  RH  042%=      5-min Rain = 0
KSP2 042216Z 11008KT 31/17 A30 RMK A01 T03070168  RH  043%=      5-min Rain = 0
KSP2 042217Z 11008KT 31/17 A30 RMK A01 T03070166  RH  043%=      5-min Rain = 0
KSP2 042218Z 10008KT 31/17 A30 RMK A01 T03080169  RH  043%=      5-min Rain = 0
KSP2 042219Z 10009KT 31/17 A30 RMK A01 T03090167  RH  043%=      5-min Rain = 0
KSP2 042220Z 10009KT 31/17 A30 RMK A01 T03090167  RH  043%=      5-min Rain = 0
KSP2 042221Z 10009KT 31/17 A30 RMK A01 T03080165  RH  042%=      5-min Rain = 0
KSP2 042222Z 10008KT 31/17 A30 RMK A01 T03070165  RH  042%=      5-min Rain = 0
KSP2 042223Z 10010KT 31/17 A30 RMK A01 T03080165  RH  042%=      5-min Rain = 0
KSP2 042224Z 09008KT 31/16 A30 RMK A01 T03080163  RH  042%=      5-min Rain = 0
KSP2 042225Z 10009KT 31/16 A30 RMK A01 T03080162  RH  041%=      5-min Rain = 0
KSP2 042226Z 10008KT 31/17 A30 RMK A01 T03090166  RH  042%=      5-min Rain = 0
KSP2 042227Z 10008KT 31/16 A30 RMK A01 T03110163  RH  041%=      5-min Rain = 0
KSP2 042228Z 08005KT 31/17 A30 RMK A01 T03120167  RH  042%=      5-min Rain = 0
KSP2 042229Z 09007KT 31/17 A30 RMK A01 T03130166  RH  041%=      5-min Rain = 0
KSP2 042230Z 09006KT 31/16 A30 RMK A01 T03130163  RH  040%=      5-min Rain = 0
KSP2 042231Z 10006KT 31/16 A30 RMK A01 T03140161  RH  040%=      5-min Rain = 0
KSP2 042232Z 10006KT 31/16 A30 RMK A01 T03140159  RH  039%=      5-min Rain = 0
KSP2 042233Z 09009KT 31/17 A30 RMK A01 T03140165  RH  041%=      5-min Rain = 0
KSP2 042234Z 10008KT 32/16 A30 RMK A01 T03180157  RH  038%=      5-min Rain = 0
KSP2 042235Z 08008KT 32/16 A30 RMK A01 T03220158  RH  037%=      5-min Rain = 0
KSP2 042236Z 08008KT 33/16 A30 RMK A01 T03250161  RH  037%=      5-min Rain = 0
KSP2 042237Z 08010KT 33/16 A30 RMK A01 T03280158  RH  036%=      5-min Rain = 0
KSP2 042238Z 08009KT 33/16 A30 RMK A01 T03290156  RH  035%=      5-min Rain = 0
KSP2 042239Z 08010KT 33/16 A30 RMK A01 T03280155  RH  035%=      5-min Rain = 0
KSP2 042240Z 09009KT 33/15 A30 RMK A01 T03270154  RH  035%=      5-min Rain = 0
KSP2 042241Z 09010KT 33/16 A30 RMK A01 T03280157  RH  036%=      5-min Rain = 0
KSP2 042242Z 09010KT 33/15 A30 RMK A01 T03290154  RH  035%=      5-min Rain = 0
KSP2 042243Z 10010KT 33/15 A30 RMK A01 T03280154  RH  035%=      5-min Rain = 0
KSP2 042244Z 10010KT 33/15 A30 RMK A01 T03280153  RH  035%=      5-min Rain = 0
KSP2 042245Z 10009KT 33/15 A30 RMK A01 T03290153  RH  035%=      5-min Rain = 0
KSP2 042246Z 09010KT 33/15 A2999 RMK A01 T03290152  RH  035%=      5-min Rain = 0
KSP2 042247Z 10010KT 33/16 A2999 RMK A01 T03300156  RH  035%=      5-min Rain = 0
KSP2 042248Z 11008KT 33/15 A2999 RMK A01 T03320154  RH  034%=      5-min Rain = 0
KSP2 042249Z 09009KT 33/15 A2999 RMK A01 T03330154  RH  034%=      5-min Rain = 0
KSP2 042250Z 10008KT 33/15 A2999 RMK A01 T03330151  RH  034%=      5-min Rain = 0
KSP2 042251Z 09010KT 33/15 A2999 RMK A01 T03310152  RH  034%=      5-min Rain = 0
KSP2 042252Z 08009KT 33/15 A2999 RMK A01 T03310150  RH  034%=      5-min Rain = 0
KSP2 042253Z 08010KT 33/15 A2999 RMK A01 T03300154  RH  035%=      5-min Rain = 0
KSP2 042254Z 08009KT 33/15 A2999 RMK A01 T03300150  RH  034%=      5-min Rain = 0
KSP2 042255Z 09009KT 33/15 A2999 RMK A01 T03280150  RH  034%=      5-min Rain = 0
KSP2 042256Z 10007KT 33/15 A2999 RMK A01 T03270151  RH  035%=      5-min Rain = 0
KSP2 042257Z 10007KT 33/15 A2999 RMK A01 T03270149  RH  034%=      5-min Rain = 0
KSP2 042258Z 11008KT 33/15 A2999 RMK A01 T03270151  RH  035%=      5-min Rain = 0
KSP2 042259Z 11009KT 33/15 A2999 RMK A01 T03280148  RH  034%=      5-min Rain = 0.01
KSP2 042300Z 11011KT 33/15 A2999 RMK A01 T03280149  RH  034%=      5-min Rain = 0
KSP2 042301Z 10008KT 33/15 A2999 RMK A01 T03280152  RH  035%=      5-min Rain = 0
KSP2 042302Z 10007KT 33/15 A2999 RMK A01 T03300152  RH  034%=      5-min Rain = 0
KSP2 042303Z 08009KT 33/16 A2999 RMK A01 T03300155  RH  035%=      5-min Rain = 0
KSP2 042304Z 09009KT 33/16 A2999 RMK A01 T03290155  RH  035%=      5-min Rain = 0
KSP2 042305Z 09009KT 33/15 A2999 RMK A01 T03300152  RH  034%=      5-min Rain = 0
KSP2 042306Z 10011KT 33/15 A2999 RMK A01 T03290151  RH  034%=      5-min Rain = 0
KSP2 042307Z 10011KT 33/15 A2999 RMK A01 T03290153  RH  035%=      5-min Rain = 0
KSP2 042308Z 11011KT 33/15 A2999 RMK A01 T03280151  RH  034%=      5-min Rain = 0
KSP2 042309Z 11012KT 33/15 A2999 RMK A01 T03250149  RH  035%=      5-min Rain = 0
KSP2 042310Z 10011KT 32/15 A2999 RMK A01 T03230151  RH  035%=      5-min Rain = 0
KSP2 042311Z 08010KT 32/16 A2999 RMK A01 T03220157  RH  037%=      5-min Rain = 0
KSP2 042312Z 08010KT 32/16 A2999 RMK A01 T03220158  RH  037%=      5-min Rain = 0
KSP2 042313Z 08010KT 32/16 A2999 RMK A01 T03200155  RH  037%=      5-min Rain = 0
KSP2 042314Z 07008KT 32/15 A2999 RMK A01 T03190152  RH  037%=      5-min Rain = 0
KSP2 042315Z 08009KT 32/16 A2999 RMK A01 T03210156  RH  037%=      5-min Rain = 0
KSP2 042316Z 09010KT 33/15 A2999 RMK A01 T03250153  RH  035%=      5-min Rain = 0
KSP2 042317Z 09010KT 33/15 A2999 RMK A01 T03270151  RH  035%=      5-min Rain = 0
KSP2 042318Z 08007KT 33/16 A2999 RMK A01 T03270156  RH  036%=      5-min Rain = 0
KSP2 042319Z 08008KT 33/16 A2999 RMK A01 T03290157  RH  036%=      5-min Rain = 0
KSP2 042320Z 09009KT 33/16 A2999 RMK A01 T03310156  RH  035%=      5-min Rain = 0
KSP2 042321Z 08011KT 33/15 A2999 RMK A01 T03320149  RH  033%=      5-min Rain = 0
KSP2 042322Z 09010KT 33/15 A30 RMK A01 T03280149  RH  034%=      5-min Rain = 0
KSP2 042323Z 09008KT 33/15 A30 RMK A01 T03270150  RH  034%=      5-min Rain = 0
KSP2 042324Z 10008KT 33/15 A30 RMK A01 T03290151  RH  034%=      5-min Rain = 0
KSP2 042325Z 09011KT 33/15 A2999 RMK A01 T03290148  RH  034%=      5-min Rain = 0
KSP2 042326Z 09012KT 33/15 A2999 RMK A01 T03290147  RH  033%=      5-min Rain = 0
KSP2 042327Z 08011KT 33/15 A2999 RMK A01 T03260148  RH  034%=      5-min Rain = 0
KSP2 042328Z 09009KT 32/15 A2999 RMK A01 T03240148  RH  035%=      5-min Rain = 0
KSP2 042329Z 08011KT 33/15 A2999 RMK A01 T03250146  RH  034%=      5-min Rain = 0
KSP2 042330Z 08010KT 33/15 A2999 RMK A01 T03250151  RH  035%=      5-min Rain = 0
KSP2 042331Z 07010KT 33/16 A2999 RMK A01 T03260157  RH  036%=      5-min Rain = 0
KSP2 042332Z 08011KT 33/16 A2999 RMK A01 T03260159  RH  037%=      5-min Rain = 0
KSP2 042333Z 06012KT 32/17 A2999 RMK A01 T03220166  RH  039%=      5-min Rain = 0
KSP2 042334Z 06014KT 32/16 A2999 RMK A01 T03180164  RH  039%=      5-min Rain = 0
KSP2 042335Z 06014KT 32/16 A2999 RMK A01 T03160164  RH  040%=      5-min Rain = 0
KSP2 042336Z 06013KT 31/17 A2999 RMK A01 T03140166  RH  041%=      5-min Rain = 0
KSP2 042337Z 06013KT 31/17 A2999 RMK A01 T03130166  RH  041%=      5-min Rain = 0
KSP2 042338Z 08012KT 31/17 A2999 RMK A01 T03120167  RH  042%=      5-min Rain = 0
KSP2 042339Z 08011KT 31/17 A2999 RMK A01 T03120168  RH  042%=      5-min Rain = 0
KSP2 042340Z 07012KT 31/17 A2999 RMK A01 T03130168  RH  042%=      5-min Rain = 0
KSP2 042341Z 07013KT 31/17 A2999 RMK A01 T03120168  RH  042%=      5-min Rain = 0
KSP2 042342Z 07015KT 31/17 A2999 RMK A01 T03110171  RH  043%=      5-min Rain = 0
KSP2 042343Z 07016KT 31/17 A2999 RMK A01 T03080171  RH  044%=      5-min Rain = 0
KSP2 042344Z 06015KT 31/17 A2999 RMK A01 T03060170  RH  044%=      5-min Rain = 0
KSP2 042345Z 07015KT 31/17 A2999 RMK A01 T03050170  RH  045%=      5-min Rain = 0
KSP2 042346Z 08016KT 30/17 A2999 RMK A01 T03030169  RH  044%=      5-min Rain = 0
KSP2 042347Z 07012KT 30/17 A30 RMK A01 T03020170  RH  045%=      5-min Rain = 0
KSP2 042348Z 07017G22KT 30/17 A30 RMK A01 T03010168  RH  045%=      5-min Rain = 0
KSP2 042349Z 06017G23KT 30/17 A30 RMK A01 T03000171  RH  046%=      5-min Rain = 0
KSP2 042350Z 06018G23KT 30/18 A30 RMK A01 T02950180  RH  050%=      5-min Rain = 0
KSP2 042351Z 05016KT 29/18 A30 RMK A01 T02880180  RH  052%=      5-min Rain = 0
KSP2 042352Z 06016KT 29/18 A2999 RMK A01 T02850179  RH  053%=      5-min Rain = 0
KSP2 042353Z 06013KT 28/18 A2999 RMK A01 T02840177  RH  052%=      5-min Rain = 0
KSP2 042354Z 06013KT 28/18 A2999 RMK A01 T02830176  RH  052%=      5-min Rain = 0
KSP2 042355Z 06013KT 29/17 A2999 RMK A01 T02850173  RH  051%=      5-min Rain = 0
KSP2 042356Z 06012KT 29/17 A2999 RMK A01 T02860173  RH  050%=      5-min Rain = 0
KSP2 042357Z 06013KT 29/17 A2999 RMK A01 T02860170  RH  049%=      5-min Rain = 0
KSP2 042358Z 07011KT 29/17 A2999 RMK A01 T02870172  RH  050%=      5-min Rain = 0
KSP2 042359Z 07012KT 29/17 A2999 RMK A01 T02870174  RH  050%=      5-min Rain = 0
KSP2 050000Z 07012KT 29/17 A2999 RMK A01 T02870174  RH  050%=      5-min Rain = 0
KSP2 050001Z 07012KT 29/18 A2999 RMK A01 T02880176  RH  051%=      5-min Rain = 0
KSP2 050002Z 07012KT 29/18 A2999 RMK A01 T02880178  RH  051%=      5-min Rain = 0
KSP2 050003Z 07013KT 29/18 A2999 RMK A01 T02880183  RH  053%=      5-min Rain = 0
KSP2 050004Z 07015KT 29/18 A2999 RMK A01 T02850183  RH  054%=      5-min Rain = 0
KSP2 050005Z 06012KT 28/18 A2999 RMK A01 T02820184  RH  055%=      5-min Rain = 0
KSP2 050006Z 07011KT 28/19 A2999 RMK A01 T02820186  RH  056%=      5-min Rain = 0
KSP2 050007Z 07011KT 28/19 A2999 RMK A01 T02830185  RH  055%=      5-min Rain = 0
KSP2 050008Z 06012KT 29/19 A2999 RMK A01 T02850186  RH  055%=      5-min Rain = 0
KSP2 050009Z 07013KT 29/19 A2999 RMK A01 T02850186  RH  055%=      5-min Rain = 0
KSP2 050010Z 07017KT 28/19 A30 RMK A01 T02840185  RH  055%=      5-min Rain = 0
KSP2 050011Z 07016KT 28/18 A30 RMK A01 T02810181  RH  055%=      5-min Rain = 0
KSP2 050012Z 06015G20KT 28/18 A30 RMK A01 T02780181  RH  056%=      5-min Rain = 0
KSP2 050013Z 06018KT 28/18 A30 RMK A01 T02750181  RH  057%=      5-min Rain = 0
KSP2 050014Z 06015KT 27/18 A30 RMK A01 T02710182  RH  058%=      5-min Rain = 0
KSP2 050015Z 06014KT 27/18 A30 RMK A01 T02670184  RH  060%=      5-min Rain = 0
KSP2 050016Z 07014G19KT 27/19 A30 RMK A01 T02660185  RH  061%=      5-min Rain = 0
KSP2 050017Z 08014KT 26/18 A30 RMK A01 T02630184  RH  062%=      5-min Rain = 0
KSP2 050018Z 08014KT 26/19 A30 RMK A01 T02600185  RH  063%=      5-min Rain = 0
KSP2 050019Z 08013KT 26/19 A30 RMK A01 T02580186  RH  064%=      5-min Rain = 0
KSP2 050020Z 07012KT 26/19 A30 RMK A01 T02570186  RH  065%=      5-min Rain = 0
KSP2 050021Z 07011KT 26/19 A30 RMK A01 T02570187  RH  065%=      5-min Rain = 0
KSP2 050022Z 08015KT 26/19 A30 RMK A01 T02570187  RH  065%=      5-min Rain = 0
KSP2 050023Z 07016KT 26/19 A30 RMK A01 T02560185  RH  065%=      5-min Rain = 0
KSP2 050024Z 07015KT 26/19 A30 RMK A01 T02550186  RH  066%=      5-min Rain = 0
KSP2 050025Z 07016KT 26/19 A30 RMK A01 T02550187  RH  066%=      5-min Rain = 0
KSP2 050026Z 08017KT 25/19 A30 RMK A01 T02540186  RH  066%=      5-min Rain = 0
KSP2 050027Z 08018KT 25/19 A30 RMK A01 T02540185  RH  066%=      5-min Rain = 0
KSP2 050028Z 08017KT 25/18 A30 RMK A01 T02520184  RH  066%=      5-min Rain = 0
KSP2 050029Z 08016KT 25/18 A30 RMK A01 T02520184  RH  066%=      5-min Rain = 0
KSP2 050030Z 08012KT 25/19 A30 RMK A01 T02520185  RH  066%=      5-min Rain = 0
KSP2 050031Z 08015KT 25/19 A30 RMK A01 T02520186  RH  067%=      5-min Rain = 0
KSP2 050032Z 08017KT 25/19 A2999 RMK A01 T02520186  RH  067%=      5-min Rain = 0
KSP2 050033Z 08014KT 25/19 A30 RMK A01 T02520187  RH  067%=      5-min Rain = 0
KSP2 050034Z 08014KT 25/19 A30 RMK A01 T02520187  RH  067%=      5-min Rain = 0
KSP2 050035Z 08015KT 25/19 A30 RMK A01 T02520188  RH  068%=      5-min Rain = 0
KSP2 050036Z 07015KT 25/19 A30 RMK A01 T02520189  RH  068%=      5-min Rain = 0
KSP2 050037Z 08013KT 25/19 A30 RMK A01 T02520189  RH  068%=      5-min Rain = 0
KSP2 050038Z 07017KT 25/19 A30 RMK A01 T02520190  RH  068%=      5-min Rain = 0
KSP2 050039Z 08016KT 25/19 A30 RMK A01 T02530190  RH  068%=      5-min Rain = 0
KSP2 050040Z 08015KT 25/19 A30 RMK A01 T02530191  RH  069%=      5-min Rain = 0
KSP2 050041Z 07017KT 25/19 A30 RMK A01 T02530191  RH  069%=      5-min Rain = 0
KSP2 050042Z 06017G22KT 25/19 A30 RMK A01 T02530192  RH  069%=      5-min Rain = 0
KSP2 050043Z 07017KT 25/19 A30 RMK A01 T02530193  RH  069%=      5-min Rain = 0
KSP2 050044Z 07017KT 25/19 A30 RMK A01 T02540193  RH  069%=      5-min Rain = 0
KSP2 050045Z 07014KT 25/19 A30 RMK A01 T02540193  RH  069%=      5-min Rain = 0
KSP2 050046Z 08013KT 25/19 A30 RMK A01 T02540194  RH  069%=      5-min Rain = 0
KSP2 050047Z 08012KT 25/19 A30 RMK A01 T02540194  RH  070%=      5-min Rain = 0
KSP2 050048Z 08015KT 25/19 A30 RMK A01 T02540194  RH  070%=      5-min Rain = 0
KSP2 050049Z 07013KT 25/20 A30 RMK A01 T02540195  RH  070%=      5-min Rain = 0
KSP2 050050Z 08013KT 25/20 A30 RMK A01 T02540195  RH  070%=      5-min Rain = 0
KSP2 050051Z 08010KT 25/20 A30 RMK A01 T02540195  RH  070%=      5-min Rain = 0
KSP2 050052Z 08011KT 25/20 A30 RMK A01 T02540195  RH  070%=      5-min Rain = 0
KSP2 050053Z 08011KT 25/20 A30 RMK A01 T02540196  RH  070%=      5-min Rain = 0
KSP2 050054Z 08011KT 25/20 A30 RMK A01 T02540196  RH  070%=      5-min Rain = 0
KSP2 050055Z 08012KT 25/20 A30 RMK A01 T02540195  RH  070%=      5-min Rain = 0
KSP2 050056Z 08012KT 25/20 A30 RMK A01 T02540196  RH  070%=      5-min Rain = 0
KSP2 050057Z 08012KT 25/20 A30 RMK A01 T02540196  RH  070%=      5-min Rain = 0
KSP2 050058Z 08013KT 25/20 A30 RMK A01 T02540196  RH  070%=      5-min Rain = 0
KSP2 050059Z 08013KT 25/20 A30 RMK A01 T02540196  RH  071%=      5-min Rain = 0
KSP2 050100Z 07012KT 25/20 A30 RMK A01 T02540197  RH  071%=      5-min Rain = 0
KSP2 050101Z 07016KT 25/20 A30 RMK A01 T02540197  RH  071%=      5-min Rain = 0
KSP2 050102Z 07016KT 25/20 A30 RMK A01 T02530197  RH  071%=      5-min Rain = 0
KSP2 050103Z 07015KT 25/20 A30 RMK A01 T02530197  RH  071%=      5-min Rain = 0
KSP2 050104Z 07016KT 25/20 A30 RMK A01 T02530198  RH  072%=      5-min Rain = 0
KSP2 050105Z 07018KT 25/20 A30 RMK A01 T02520198  RH  072%=      5-min Rain = 0
KSP2 050106Z 08016KT 25/20 A30 RMK A01 T02510198  RH  072%=      5-min Rain = 0
KSP2 050107Z 07013KT 25/20 A30 RMK A01 T02500199  RH  073%=      5-min Rain = 0
KSP2 050108Z 08016KT 25/20 A3001 RMK A01 T02500199  RH  073%=      5-min Rain = 0
KSP2 050109Z 07013G18KT 25/20 A3001 RMK A01 T02500199  RH  073%=      5-min Rain = 0
KSP2 050110Z 07014KT 25/20 A3001 RMK A01 T02490199  RH  074%=      5-min Rain = 0
KSP2 050111Z 07013KT 25/20 A3001 RMK A01 T02490199  RH  074%=      5-min Rain = 0
KSP2 050112Z 08014KT 25/20 A3001 RMK A01 T02490199  RH  074%=      5-min Rain = 0
KSP2 050113Z 08015KT 25/20 A30 RMK A01 T02480199  RH  074%=      5-min Rain = 0
KSP2 050114Z 08013KT 25/20 A3001 RMK A01 T02480199  RH  074%=      5-min Rain = 0
KSP2 050115Z 08011KT 25/20 A3001 RMK A01 T02470199  RH  074%=      5-min Rain = 0
KSP2 050116Z 07015KT 25/20 A3001 RMK A01 T02470198  RH  074%=      5-min Rain = 0
KSP2 050117Z 07015KT 25/20 A3001 RMK A01 T02470198  RH  074%=      5-min Rain = 0
KSP2 050118Z 08015KT 25/20 A3001 RMK A01 T02460198  RH  074%=      5-min Rain = 0
KSP2 050119Z 08015KT 25/20 A3001 RMK A01 T02460198  RH  075%=      5-min Rain = 0
KSP2 050120Z 08014KT 25/20 A3001 RMK A01 T02450198  RH  075%=      5-min Rain = 0
KSP2 050121Z 08013KT 25/20 A3001 RMK A01 T02450198  RH  075%=      5-min Rain = 0
KSP2 050122Z 08015KT 25/20 A3001 RMK A01 T02450198  RH  075%=      5-min Rain = 0
KSP2 050123Z 08015KT 25/20 A3001 RMK A01 T02450198  RH  075%=      5-min Rain = 0
KSP2 050124Z 09012KT 25/20 A3001 RMK A01 T02450198  RH  075%=      5-min Rain = 0
KSP2 050125Z 08014KT 24/20 A3001 RMK A01 T02440199  RH  076%=      5-min Rain = 0
KSP2 050126Z 07014KT 24/20 A3001 RMK A01 T02440199  RH  076%=      5-min Rain = 0
KSP2 050127Z 08014KT 24/20 A3001 RMK A01 T02440199  RH  076%=      5-min Rain = 0
KSP2 050128Z 08013KT 24/20 A3001 RMK A01 T02440199  RH  076%=      5-min Rain = 0
KSP2 050129Z 08013KT 24/20 A3001 RMK A01 T02440199  RH  076%=      5-min Rain = 0
KSP2 050130Z 08015KT 24/20 A3001 RMK A01 T02440199  RH  076%=      5-min Rain = 0
KSP2 050131Z 07013KT 24/20 A3001 RMK A01 T02440199  RH  076%=      5-min Rain = 0
KSP2 050132Z 07011KT 24/20 A3001 RMK A01 T02430199  RH  076%=      5-min Rain = 0
KSP2 050133Z 07011KT 24/20 A3002 RMK A01 T02430200  RH  077%=      5-min Rain = 0
KSP2 050134Z 08011KT 24/20 A3002 RMK A01 T02440200  RH  077%=      5-min Rain = 0
KSP2 050135Z 07011KT 24/20 A3002 RMK A01 T02440200  RH  077%=      5-min Rain = 0
KSP2 050136Z 08010KT 24/20 A3002 RMK A01 T02440200  RH  077%=      5-min Rain = 0
KSP2 050137Z 08011KT 24/20 A3002 RMK A01 T02430200  RH  077%=      5-min Rain = 0
KSP2 050138Z 07012KT 24/20 A3002 RMK A01 T02430200  RH  077%=      5-min Rain = 0
KSP2 050139Z 08011KT 24/20 A3001 RMK A01 T02430200  RH  077%=      5-min Rain = 0
KSP2 050140Z 08011KT 24/20 A3001 RMK A01 T02430200  RH  077%=      5-min Rain = 0
KSP2 050141Z 08009KT 24/20 A3001 RMK A01 T02430200  RH  077%=      5-min Rain = 0
KSP2 050142Z 08010KT 24/20 A3001 RMK A01 T02430200  RH  077%=      5-min Rain = 0
KSP2 050143Z 08008KT 24/20 A3001 RMK A01 T02430200  RH  077%=      5-min Rain = 0
KSP2 050144Z 08011KT 24/20 A3001 RMK A01 T02430200  RH  077%=      5-min Rain = 0
KSP2 050145Z 08012KT 24/20 A3001 RMK A01 T02430200  RH  077%=      5-min Rain = 0
KSP2 050146Z 08010KT 24/20 A3001 RMK A01 T02430200  RH  077%=      5-min Rain = 0
KSP2 050147Z 08011KT 24/20 A3001 RMK A01 T02420200  RH  077%=      5-min Rain = 0
KSP2 050148Z 08010KT 24/20 A3001 RMK A01 T02420200  RH  077%=      5-min Rain = 0
KSP2 050149Z 08011KT 24/20 A3001 RMK A01 T02420200  RH  077%=      5-min Rain = 0
KSP2 050150Z 08011KT 24/20 A3001 RMK A01 T02420200  RH  077%=      5-min Rain = 0
KSP2 050151Z 08011KT 24/20 A3001 RMK A01 T02420200  RH  077%=      5-min Rain = 0
KSP2 050152Z 08011KT 24/20 A3001 RMK A01 T02410200  RH  078%=      5-min Rain = 0
KSP2 050153Z 08012KT 24/20 A3001 RMK A01 T02410200  RH  078%=      5-min Rain = 0
KSP2 050154Z 08013KT 24/20 A3001 RMK A01 T02410200  RH  078%=      5-min Rain = 0
KSP2 050155Z 08011KT 24/20 A3001 RMK A01 T02420200  RH  077%=      5-min Rain = 0
KSP2 050156Z 09008KT 24/20 A3001 RMK A01 T02410200  RH  078%=      5-min Rain = 0
KSP2 050157Z 08010KT 24/20 A3001 RMK A01 T02410200  RH  078%=      5-min Rain = 0
KSP2 050158Z 08011KT 24/20 A3001 RMK A01 T02410199  RH  078%=      5-min Rain = 0
KSP2 050159Z 08012KT 24/20 A3001 RMK A01 T02410199  RH  078%=      5-min Rain = 0
KSP2 050200Z 09011KT 24/20 A3001 RMK A01 T02410200  RH  078%=      5-min Rain = 0
KSP2 050201Z 08012KT 24/20 A3001 RMK A01 T02400199  RH  078%=      5-min Rain = 0
KSP2 050202Z 08012KT 24/20 A3001 RMK A01 T02400200  RH  078%=      5-min Rain = 0
KSP2 050203Z 08013KT 24/20 A3001 RMK A01 T02400199  RH  078%=      5-min Rain = 0
KSP2 050204Z 08011KT 24/20 A3002 RMK A01 T02400200  RH  078%=      5-min Rain = 0
KSP2 050205Z 07009KT 24/20 A3002 RMK A01 T02400200  RH  078%=      5-min Rain = 0
KSP2 050206Z 08010KT 24/20 A3002 RMK A01 T02400200  RH  078%=      5-min Rain = 0
KSP2 050207Z 08010KT 24/20 A3002 RMK A01 T02400200  RH  078%=      5-min Rain = 0
KSP2 050208Z 08010KT 24/20 A3002 RMK A01 T02400200  RH  078%=      5-min Rain = 0
KSP2 050209Z 08009KT 24/20 A3002 RMK A01 T02390200  RH  078%=      5-min Rain = 0
KSP2 050210Z 08011KT 24/20 A3002 RMK A01 T02390200  RH  079%=      5-min Rain = 0
KSP2 050211Z 08010KT 24/20 A3002 RMK A01 T02390200  RH  079%=      5-min Rain = 0
KSP2 050212Z 08009KT 24/20 A3002 RMK A01 T02390200  RH  079%=      5-min Rain = 0
KSP2 050213Z 08007KT 24/20 A3002 RMK A01 T02390200  RH  079%=      5-min Rain = 0
KSP2 050214Z 08010KT 24/20 A3002 RMK A01 T02380200  RH  079%=      5-min Rain = 0
KSP2 050215Z 08009KT 24/20 A3002 RMK A01 T02380200  RH  079%=      5-min Rain = 0
KSP2 050216Z 09008KT 24/20 A3001 RMK A01 T02380200  RH  079%=      5-min Rain = 0
KSP2 050217Z 09008KT 24/20 A3001 RMK A01 T02380200  RH  079%=      5-min Rain = 0
KSP2 050218Z 10006KT 24/20 A3001 RMK A01 T02380200  RH  080%=      5-min Rain = 0
KSP2 050219Z 10009KT 24/20 A3001 RMK A01 T02370200  RH  080%=      5-min Rain = 0
KSP2 050220Z 10009KT 24/20 A3001 RMK A01 T02370200  RH  080%=      5-min Rain = 0
KSP2 050221Z 09009KT 24/20 A3001 RMK A01 T02370200  RH  080%=      5-min Rain = 0
KSP2 050222Z 09008KT 24/20 A3001 RMK A01 T02370200  RH  080%=      5-min Rain = 0
KSP2 050223Z 09009KT 24/20 A3001 RMK A01 T02370200  RH  080%=      5-min Rain = 0
KSP2 050224Z 09011KT 24/20 A3001 RMK A01 T02370200  RH  080%=      5-min Rain = 0
KSP2 050225Z 10008KT 24/20 A3001 RMK A01 T02370200  RH  080%=      5-min Rain = 0
KSP2 050226Z 09007KT 24/20 A3001 RMK A01 T02360201  RH  080%=      5-min Rain = 0
KSP2 050227Z 10008KT 24/20 A3001 RMK A01 T02360201  RH  081%=      5-min Rain = 0
KSP2 050228Z 10009KT 24/20 A3001 RMK A01 T02350201  RH  081%=      5-min Rain = 0
KSP2 050229Z 09008KT 24/20 A3001 RMK A01 T02350201  RH  081%=      5-min Rain = 0
KSP2 050230Z 09008KT 24/20 A3001 RMK A01 T02350201  RH  081%=      5-min Rain = 0
KSP2 050231Z 09007KT 24/20 A3001 RMK A01 T02350201  RH  081%=      5-min Rain = 0
KSP2 050232Z 08009KT 24/20 A3001 RMK A01 T02350201  RH  081%=      5-min Rain = 0
KSP2 050233Z 09009KT 24/20 A3001 RMK A01 T02350200  RH  081%=      5-min Rain = 0
KSP2 050234Z 09008KT 24/20 A3001 RMK A01 T02350200  RH  081%=      5-min Rain = 0
KSP2 050235Z 08006KT 24/20 A3001 RMK A01 T02350201  RH  081%=      5-min Rain = 0
KSP2 050236Z 08006KT 24/20 A3001 RMK A01 T02350201  RH  081%=      5-min Rain = 0
KSP2 050237Z 08007KT 23/20 A3001 RMK A01 T02340201  RH  081%=      5-min Rain = 0
KSP2 050238Z 09006KT 23/20 A3001 RMK A01 T02340201  RH  081%=      5-min Rain = 0
KSP2 050239Z 08006KT 23/20 A3001 RMK A01 T02340201  RH  082%=      5-min Rain = 0
KSP2 050240Z 08006KT 23/20 A3001 RMK A01 T02340201  RH  082%=      5-min Rain = 0
KSP2 050241Z 08007KT 23/20 A3001 RMK A01 T02330201  RH  082%=      5-min Rain = 0
KSP2 050242Z 08006KT 23/20 A3001 RMK A01 T02340201  RH  082%=      5-min Rain = 0
KSP2 050243Z 08006KT 23/20 A3001 RMK A01 T02330201  RH  082%=      5-min Rain = 0
KSP2 050244Z 09005KT 23/20 A3001 RMK A01 T02330201  RH  082%=      5-min Rain = 0
KSP2 050245Z 08006KT 23/20 A3001 RMK A01 T02320201  RH  083%=      5-min Rain = 0
KSP2 050246Z 08007KT 23/20 A3001 RMK A01 T02320201  RH  083%=      5-min Rain = 0
KSP2 050247Z 08006KT 23/20 A3001 RMK A01 T02320200  RH  082%=      5-min Rain = 0
KSP2 050248Z 09006KT 23/20 A3001 RMK A01 T02320200  RH  082%=      5-min Rain = 0
KSP2 050249Z 09006KT 23/20 A3001 RMK A01 T02320200  RH  082%=      5-min Rain = 0
KSP2 050250Z 09006KT 23/20 A3001 RMK A01 T02320200  RH  082%=      5-min Rain = 0
KSP2 050251Z 09006KT 23/20 A3001 RMK A01 T02320201  RH  082%=      5-min Rain = 0
KSP2 050252Z 09005KT 23/20 A3001 RMK A01 T02310200  RH  082%=      5-min Rain = 0
KSP2 050253Z 09005KT 23/20 A3001 RMK A01 T02310200  RH  082%=      5-min Rain = 0
KSP2 050254Z 08005KT 23/20 A3001 RMK A01 T02310200  RH  083%=      5-min Rain = 0
KSP2 050255Z 09005KT 23/20 A3001 RMK A01 T02310200  RH  082%=      5-min Rain = 0
KSP2 050256Z 09004KT 23/20 A3001 RMK A01 T02310200  RH  082%=      5-min Rain = 0
KSP2 050257Z 09006KT 23/20 A3001 RMK A01 T02310199  RH  083%=      5-min Rain = 0
KSP2 050258Z 09007KT 23/20 A3001 RMK A01 T02310200  RH  083%=      5-min Rain = 0
KSP2 050259Z 09006KT 23/20 A3001 RMK A01 T02310199  RH  082%=      5-min Rain = 0
KSP2 050300Z 09006KT 23/20 A3001 RMK A01 T02310199  RH  082%=      5-min Rain = 0
KSP2 050301Z 09006KT 23/20 A3001 RMK A01 T02310200  RH  083%=      5-min Rain = 0
KSP2 050302Z 09007KT 23/20 A3001 RMK A01 T02300199  RH  083%=      5-min Rain = 0
KSP2 050303Z 09007KT 23/20 A3001 RMK A01 T02300198  RH  082%=      5-min Rain = 0
KSP2 050304Z 09006KT 23/20 A3001 RMK A01 T02300198  RH  082%=      5-min Rain = 0
KSP2 050305Z 09006KT 23/20 A3001 RMK A01 T02300198  RH  082%=      5-min Rain = 0
KSP2 050306Z 09006KT 23/20 A3001 RMK A01 T02300198  RH  082%=      5-min Rain = 0
KSP2 050307Z 09005KT 23/20 A3001 RMK A01 T02300199  RH  082%=      5-min Rain = 0
KSP2 050308Z 09005KT 23/20 A3001 RMK A01 T02300199  RH  083%=      5-min Rain = 0
KSP2 050309Z 08005KT 23/20 A3001 RMK A01 T02300199  RH  083%=      5-min Rain = 0
KSP2 050310Z 08006KT 23/20 A3001 RMK A01 T02290199  RH  083%=      5-min Rain = 0
KSP2 050311Z 07005KT 23/20 A3001 RMK A01 T02290199  RH  083%=      5-min Rain = 0
KSP2 050312Z 08007KT 23/20 A3001 RMK A01 T02290199  RH  083%=      5-min Rain = 0
KSP2 050313Z 08006KT 23/20 A3001 RMK A01 T02290199  RH  083%=      5-min Rain = 0
KSP2 050314Z 08006KT 23/20 A3001 RMK A01 T02290199  RH  083%=      5-min Rain = 0
KSP2 050315Z 08005KT 23/20 A3001 RMK A01 T02290199  RH  084%=      5-min Rain = 0
KSP2 050316Z 08006KT 23/20 A3001 RMK A01 T02280199  RH  084%=      5-min Rain = 0
KSP2 050317Z 09006KT 23/20 A3001 RMK A01 T02280198  RH  083%=      5-min Rain = 0
KSP2 050318Z 08007KT 23/20 A3001 RMK A01 T02280198  RH  083%=      5-min Rain = 0
KSP2 050319Z 09007KT 23/20 A3001 RMK A01 T02280198  RH  083%=      5-min Rain = 0
KSP2 050320Z 08006KT 23/20 A3001 RMK A01 T02280198  RH  083%=      5-min Rain = 0
KSP2 050321Z 08006KT 23/20 A3001 RMK A01 T02280198  RH  083%=      5-min Rain = 0
KSP2 050322Z 08006KT 23/20 A3001 RMK A01 T02280198  RH  083%=      5-min Rain = 0
KSP2 050323Z 08006KT 23/20 A3001 RMK A01 T02280197  RH  083%=      5-min Rain = 0
KSP2 050324Z 08006KT 23/20 A3001 RMK A01 T02280198  RH  083%=      5-min Rain = 0
KSP2 050325Z 09006KT 23/20 A3001 RMK A01 T02270197  RH  083%=      5-min Rain = 0
KSP2 050326Z 09006KT 23/20 A3001 RMK A01 T02270197  RH  083%=      5-min Rain = 0
KSP2 050327Z 09007KT 23/20 A3001 RMK A01 T02270197  RH  083%=      5-min Rain = 0
KSP2 050328Z 09006KT 23/20 A3001 RMK A01 T02270197  RH  083%=      5-min Rain = 0
KSP2 050329Z 09005KT 23/20 A3001 RMK A01 T02270197  RH  083%=      5-min Rain = 0
KSP2 050330Z 08005KT 23/20 A3001 RMK A01 T02270197  RH  083%=      5-min Rain = 0
KSP2 050331Z 08005KT 23/20 A3001 RMK A01 T02270197  RH  083%=      5-min Rain = 0
KSP2 050332Z 08006KT 23/20 A3001 RMK A01 T02260197  RH  084%=      5-min Rain = 0
KSP2 050333Z 08005KT 23/20 A3001 RMK A01 T02260197  RH  084%=      5-min Rain = 0
KSP2 050334Z 07004KT 23/20 A3001 RMK A01 T02250197  RH  084%=      5-min Rain = 0
KSP2 050335Z 07005KT 22/20 A3001 RMK A01 T02240197  RH  085%=      5-min Rain = 0
KSP2 050336Z 06004KT 22/20 A3001 RMK A01 T02240197  RH  085%=      5-min Rain = 0
KSP2 050337Z 07004KT 22/20 A3001 RMK A01 T02230197  RH  085%=      5-min Rain = 0
KSP2 050338Z 07004KT 22/20 A3001 RMK A01 T02230197  RH  085%=      5-min Rain = 0
KSP2 050339Z 07005KT 22/20 A3001 RMK A01 T02230197  RH  085%=      5-min Rain = 0
KSP2 050340Z 07004KT 22/20 A3001 RMK A01 T02230197  RH  085%=      5-min Rain = 0
KSP2 050341Z 07005KT 22/20 A3001 RMK A01 T02230197  RH  085%=      5-min Rain = 0
KSP2 050342Z 07004KT 22/20 A3001 RMK A01 T02230197  RH  085%=      5-min Rain = 0
KSP2 050343Z 07004KT 22/20 A3001 RMK A01 T02220197  RH  086%=      5-min Rain = 0
KSP2 050344Z 07004KT 22/20 A3001 RMK A01 T02210197  RH  086%=      5-min Rain = 0
KSP2 050345Z 08004KT 22/20 A3001 RMK A01 T02210197  RH  086%=      5-min Rain = 0
KSP2 050346Z 08004KT 22/20 A3001 RMK A01 T02200196  RH  086%=      5-min Rain = 0
KSP2 050347Z 08004KT 22/20 A3001 RMK A01 T02200196  RH  086%=      5-min Rain = 0
KSP2 050348Z 09004KT 22/20 A3001 RMK A01 T02200196  RH  086%=      5-min Rain = 0
KSP2 050349Z 09004KT 22/20 A3001 RMK A01 T02200196  RH  086%=      5-min Rain = 0
KSP2 050350Z 08004KT 22/20 A3001 RMK A01 T02200196  RH  086%=      5-min Rain = 0
KSP2 050351Z 08004KT 22/20 A3001 RMK A01 T02200196  RH  086%=      5-min Rain = 0
KSP2 050352Z 09004KT 22/20 A3001 RMK A01 T02190196  RH  086%=      5-min Rain = 0
KSP2 050353Z 08004KT 22/20 A3001 RMK A01 T02190196  RH  086%=      5-min Rain = 0
KSP2 050354Z 08003KT 22/20 A3001 RMK A01 T02190196  RH  087%=      5-min Rain = 0
KSP2 050355Z 09004KT 22/20 A3001 RMK A01 T02190196  RH  087%=      5-min Rain = 0
KSP2 050356Z 09004KT 22/20 A3001 RMK A01 T02180195  RH  087%=      5-min Rain = 0
KSP2 050357Z 09003KT 22/20 A3001 RMK A01 T02180195  RH  087%=      5-min Rain = 0
KSP2 050358Z 09004KT 22/20 A3001 RMK A01 T02170195  RH  087%=      5-min Rain = 0
KSP2 050359Z 09004KT 22/20 A3001 RMK A01 T02170195  RH  087%=      5-min Rain = 0
KSP2 050400Z 08004KT 22/20 A3001 RMK A01 T02180196  RH  087%=      5-min Rain = 0
KSP2 050401Z 08004KT 22/20 A3001 RMK A01 T02180196  RH  087%=      5-min Rain = 0
KSP2 050402Z 08004KT 22/20 A3001 RMK A01 T02180196  RH  087%=      5-min Rain = 0
KSP2 050403Z 08004KT 22/20 A3001 RMK A01 T02180196  RH  087%=      5-min Rain = 0
KSP2 050404Z 08004KT 22/20 A3001 RMK A01 T02180196  RH  087%=      5-min Rain = 0
KSP2 050405Z 08004KT 22/20 A3001 RMK A01 T02180196  RH  087%=      5-min Rain = 0
KSP2 050406Z 08004KT 22/20 A3001 RMK A01 T02170196  RH  087%=      5-min Rain = 0
KSP2 050407Z 07004KT 22/20 A3001 RMK A01 T02180196  RH  087%=      5-min Rain = 0
KSP2 050408Z 07004KT 22/20 A3001 RMK A01 T02170196  RH  088%=      5-min Rain = 0
KSP2 050409Z 06004KT 22/20 A3001 RMK A01 T02160196  RH  088%=      5-min Rain = 0
KSP2 050410Z 06004KT 22/20 A3001 RMK A01 T02160196  RH  088%=      5-min Rain = 0
KSP2 050411Z 06004KT 22/20 A3001 RMK A01 T02160196  RH  088%=      5-min Rain = 0
KSP2 050412Z 06004KT 22/20 A3001 RMK A01 T02160196  RH  088%=      5-min Rain = 0
KSP2 050413Z 07004KT 22/20 A3001 RMK A01 T02160196  RH  088%=      5-min Rain = 0
KSP2 050414Z 07004KT 22/20 A3001 RMK A01 T02160196  RH  088%=      5-min Rain = 0
KSP2 050415Z 06004KT 22/20 A3001 RMK A01 T02160195  RH  088%=      5-min Rain = 0
KSP2 050416Z 06004KT 22/20 A3001 RMK A01 T02160195  RH  088%=      5-min Rain = 0
KSP2 050417Z 07004KT 22/20 A3001 RMK A01 T02160195  RH  088%=      5-min Rain = 0
KSP2 050418Z 06004KT 22/20 A3001 RMK A01 T02160195  RH  088%=      5-min Rain = 0
KSP2 050419Z 06005KT 22/20 A3001 RMK A01 T02160195  RH  088%=      5-min Rain = 0
KSP2 050420Z 07004KT 22/20 A3001 RMK A01 T02160195  RH  088%=      5-min Rain = 0
KSP2 050421Z 07005KT 22/20 A3001 RMK A01 T02160195  RH  088%=      5-min Rain = 0
KSP2 050422Z 07004KT 22/20 A3001 RMK A01 T02160195  RH  088%=      5-min Rain = 0
KSP2 050423Z 06005KT 22/19 A3001 RMK A01 T02160194  RH  087%=      5-min Rain = 0
KSP2 050424Z 06005KT 22/19 A3001 RMK A01 T02160194  RH  087%=      5-min Rain = 0
KSP2 050425Z 06005KT 22/19 A3001 RMK A01 T02170194  RH  087%=      5-min Rain = 0
KSP2 050426Z 06005KT 22/19 A3001 RMK A01 T02170194  RH  087%=      5-min Rain = 0
KSP2 050427Z 06005KT 22/20 A3002 RMK A01 T02170195  RH  087%=      5-min Rain = 0
KSP2 050428Z 06004KT 22/20 A3002 RMK A01 T02170195  RH  087%=      5-min Rain = 0
KSP2 050429Z 06005KT 22/20 A3002 RMK A01 T02170195  RH  087%=      5-min Rain = 0
KSP2 050430Z 06005KT 22/20 A3002 RMK A01 T02160195  RH  088%=      5-min Rain = 0
KSP2 050431Z 06005KT 22/20 A3002 RMK A01 T02160195  RH  088%=      5-min Rain = 0
KSP2 050432Z 06005KT 22/20 A3002 RMK A01 T02160195  RH  088%=      5-min Rain = 0
KSP2 050433Z 06005KT 22/20 A3002 RMK A01 T02150195  RH  088%=      5-min Rain = 0
KSP2 050434Z 06005KT 22/20 A3002 RMK A01 T02150195  RH  088%=      5-min Rain = 0
KSP2 050435Z 06005KT 22/20 A3002 RMK A01 T02150195  RH  088%=      5-min Rain = 0
KSP2 050436Z 07005KT 22/20 A3002 RMK A01 T02150195  RH  088%=      5-min Rain = 0
KSP2 050437Z 07004KT 22/20 A3002 RMK A01 T02150195  RH  088%=      5-min Rain = 0
KSP2 050438Z 07004KT 22/20 A3002 RMK A01 T02150195  RH  088%=      5-min Rain = 0
KSP2 050439Z 07005KT 22/20 A3002 RMK A01 T02150195  RH  089%=      5-min Rain = 0
KSP2 050440Z 07005KT 21/20 A3002 RMK A01 T02140195  RH  089%=      5-min Rain = 0
KSP2 050441Z 07005KT 21/20 A3002 RMK A01 T02140195  RH  089%=      5-min Rain = 0
KSP2 050442Z 06005KT 22/20 A3002 RMK A01 T02150195  RH  089%=      5-min Rain = 0
KSP2 050443Z 07005KT 21/20 A3002 RMK A01 T02140195  RH  089%=      5-min Rain = 0
KSP2 050444Z 07005KT 21/20 A3002 RMK A01 T02140195  RH  089%=      5-min Rain = 0
KSP2 050445Z 07005KT 22/20 A3002 RMK A01 T02150195  RH  088%=      5-min Rain = 0
KSP2 050446Z 06005KT 22/20 A3002 RMK A01 T02150195  RH  088%=      5-min Rain = 0
KSP2 050447Z 06005KT 22/20 A3002 RMK A01 T02150195  RH  088%=      5-min Rain = 0
KSP2 050448Z 06005KT 22/20 A3002 RMK A01 T02150195  RH  088%=      5-min Rain = 0
KSP2 050449Z 05004KT 22/19 A3002 RMK A01 T02150194  RH  088%=      5-min Rain = 0
KSP2 050450Z 05004KT 22/19 A3002 RMK A01 T02150194  RH  088%=      5-min Rain = 0
KSP2 050451Z 05004KT 22/19 A3002 RMK A01 T02160194  RH  087%=      5-min Rain = 0
KSP2 050452Z 05004KT 22/19 A3002 RMK A01 T02160193  RH  087%=      5-min Rain = 0
KSP2 050453Z 04005KT 22/19 A3002 RMK A01 T02160193  RH  087%=      5-min Rain = 0
KSP2 050454Z 04005KT 22/19 A3002 RMK A01 T02160193  RH  087%=      5-min Rain = 0
KSP2 050455Z 03005KT 22/19 A3002 RMK A01 T02160193  RH  086%=      5-min Rain = 0
KSP2 050456Z 04006KT 22/19 A3002 RMK A01 T02160193  RH  087%=      5-min Rain = 0
KSP2 050457Z 04006KT 22/19 A3002 RMK A01 T02160193  RH  087%=      5-min Rain = 0
KSP2 050458Z 04006KT 22/19 A3002 RMK A01 T02160194  RH  087%=      5-min Rain = 0
KSP2 050459Z 04006KT 22/19 A3002 RMK A01 T02160194  RH  087%=      5-min Rain = 0

Page generated in 0.319 seconds.